Time,TemperatureF,DewpointF,PressureIn,WindDirection,WindDirectionDegrees,WindSpeedMPH,WindSpeedGustMPH,Humidity,HourlyPrecipIn,Conditions,Clouds,dailyrainin,SoftwareType,DateUTC
2013-03-03 00:01:00,27.4,23.2,30.01,WNW,302,0.0,0.0,84,0.00,,,0.01,Wunderground v.1.15,2013-03-03 06:01:00,
2013-03-03 00:05:00,27.2,23.0,30.01,WNW,302,0.0,0.0,84,0.00,,,0.01,Wunderground v.1.15,2013-03-03 06:05:00,
2013-03-03 00:06:00,27.2,23.0,30.01,WNW,302,0.0,0.0,84,0.00,,,0.00,Wunderground v.1.15,2013-03-03 06:06:00,
2013-03-03 00:07:00,27.1,22.9,30.01,WNW,302,0.0,0.0,84,0.00,,,0.00,Wunderground v.1.15,2013-03-03 06:07:00,
2013-03-03 00:08:00,27.1,22.9,30.01,WNW,302,0.0,0.0,84,0.00,,,0.00,Wunderground v.1.15,2013-03-03 06:08:00,
2013-03-03 00:11:00,27.0,22.8,30.01,WNW,302,0.0,0.0,84,0.00,,,0.00,Wunderground v.1.15,2013-03-03 06:11:00,
2013-03-03 00:13:00,26.9,22.7,30.01,WNW,302,0.0,0.0,84,0.00,,,0.00,Wunderground v.1.15,2013-03-03 06:13:00,
2013-03-03 00:14:00,26.9,22.7,30.01,WNW,302,0.0,0.0,84,0.00,,,0.00,Wunderground v.1.15,2013-03-03 06:14:00,
2013-03-03 00:15:00,26.9,22.7,30.01,WNW,302,0.0,0.0,84,0.00,,,0.00,Wunderground v.1.15,2013-03-03 06:15:00,
2013-03-03 00:17:00,26.7,22.8,30.01,WNW,302,0.0,0.0,85,0.00,,,0.00,Wunderground v.1.15,2013-03-03 06:17:00,
2013-03-03 00:19:00,26.6,22.7,30.01,WNW,302,0.0,0.0,85,0.00,,,0.00,Wunderground v.1.15,2013-03-03 06:19:00,
2013-03-03 00:20:00,26.6,22.7,30.01,WNW,302,0.0,0.0,85,0.00,,,0.00,Wunderground v.1.15,2013-03-03 06:20:00,
2013-03-03 00:23:00,26.4,22.5,30.01,WNW,302,0.0,0.0,85,0.00,,,0.00,Wunderground v.1.15,2013-03-03 06:23:00,
2013-03-03 00:24:00,26.3,22.4,30.01,WNW,302,0.0,0.0,85,0.00,,,0.00,Wunderground v.1.15,2013-03-03 06:24:00,
2013-03-03 00:25:00,26.3,22.7,30.01,WNW,302,0.0,0.0,86,0.00,,,0.00,Wunderground v.1.15,2013-03-03 06:25:00,
2013-03-03 00:28:00,26.2,22.6,30.01,WNW,302,0.0,0.0,86,0.00,,,0.00,Wunderground v.1.15,2013-03-03 06:28:00,
2013-03-03 00:29:00,26.2,22.6,30.01,WNW,302,0.0,0.0,86,0.00,,,0.00,Wunderground v.1.15,2013-03-03 06:29:00,
2013-03-03 00:34:00,26.0,22.4,30.00,WNW,302,0.0,0.0,86,0.00,,,0.00,Wunderground v.1.15,2013-03-03 06:34:00,
2013-03-03 00:35:00,26.0,22.4,30.00,WNW,302,0.0,0.0,86,0.00,,,0.00,Wunderground v.1.15,2013-03-03 06:35:00,
2013-03-03 00:36:00,26.0,22.4,30.00,WNW,302,0.0,0.0,86,0.00,,,0.00,Wunderground v.1.15,2013-03-03 06:36:00,
2013-03-03 00:38:00,25.9,22.6,30.00,WNW,302,0.0,0.0,87,0.00,,,0.00,Wunderground v.1.15,2013-03-03 06:38:00,
2013-03-03 00:40:00,25.9,22.6,30.00,WNW,302,0.0,0.0,87,0.00,,,0.00,Wunderground v.1.15,2013-03-03 06:40:00,
2013-03-03 00:42:00,25.8,22.5,30.00,WNW,302,0.0,0.0,87,0.00,,,0.00,Wunderground v.1.15,2013-03-03 06:42:00,
2013-03-03 00:43:00,25.9,22.6,30.00,WNW,302,0.0,0.0,87,0.00,,,0.00,Wunderground v.1.15,2013-03-03 06:43:00,
2013-03-03 00:45:00,25.8,22.5,30.00,WNW,302,0.0,0.0,87,0.00,,,0.00,Wunderground v.1.15,2013-03-03 06:45:00,
2013-03-03 00:49:00,25.7,22.4,30.00,WNW,302,0.0,0.0,87,0.00,,,0.00,Wunderground v.1.15,2013-03-03 06:49:00,
2013-03-03 00:52:00,25.7,22.4,30.00,WNW,302,0.0,0.0,87,0.00,,,0.00,Wunderground v.1.15,2013-03-03 06:52:00,
2013-03-03 00:55:00,25.6,22.3,30.00,WNW,302,0.0,0.0,87,0.00,,,0.00,Wunderground v.1.15,2013-03-03 06:55:00,
2013-03-03 00:56:00,25.6,22.3,30.00,WNW,302,0.0,0.0,87,0.00,,,0.00,Wunderground v.1.15,2013-03-03 06:56:00,
2013-03-03 00:57:00,25.6,22.3,30.00,WNW,302,0.0,0.0,87,0.00,,,0.00,Wunderground v.1.15,2013-03-03 06:57:00,
2013-03-03 01:02:00,25.3,22.0,30.00,WNW,302,0.0,0.0,87,0.00,,,0.00,Wunderground v.1.15,2013-03-03 07:02:00,
2013-03-03 01:03:00,25.3,22.0,30.00,WNW,302,0.0,0.0,87,0.00,,,0.00,Wunderground v.1.15,2013-03-03 07:03:00,
2013-03-03 01:04:00,25.2,21.9,30.00,WNW,302,0.0,0.0,87,0.00,,,0.00,Wunderground v.1.15,2013-03-03 07:04:00,
2013-03-03 01:06:00,25.2,21.9,30.00,WNW,302,0.0,0.0,87,0.00,,,0.00,Wunderground v.1.15,2013-03-03 07:06:00,
2013-03-03 01:07:00,25.1,21.8,30.00,WNW,302,0.0,0.0,87,0.00,,,0.00,Wunderground v.1.15,2013-03-03 07:07:00,
2013-03-03 01:12:00,25.0,21.9,30.00,WNW,302,0.0,0.0,88,0.00,,,0.00,Wunderground v.1.15,2013-03-03 07:12:00,
2013-03-03 01:13:00,24.9,21.8,30.00,WNW,302,0.0,0.0,88,0.00,,,0.00,Wunderground v.1.15,2013-03-03 07:13:00,
2013-03-03 01:15:00,24.9,21.8,30.00,WNW,302,0.0,0.0,88,0.00,,,0.00,Wunderground v.1.15,2013-03-03 07:15:00,
2013-03-03 01:17:00,24.8,21.8,30.00,WNW,302,0.0,0.0,88,0.00,,,0.00,Wunderground v.1.15,2013-03-03 07:17:00,
2013-03-03 01:20:00,24.7,21.7,30.00,WNW,302,0.0,0.0,88,0.00,,,0.00,Wunderground v.1.15,2013-03-03 07:20:00,
2013-03-03 01:21:00,24.7,21.7,30.00,WNW,302,0.0,0.0,88,0.00,,,0.00,Wunderground v.1.15,2013-03-03 07:21:00,
2013-03-03 01:24:00,24.6,21.6,30.00,WNW,302,0.0,0.0,88,0.00,,,0.00,Wunderground v.1.15,2013-03-03 07:24:00,
2013-03-03 01:27:00,24.5,21.7,30.00,WNW,302,0.0,0.0,89,0.00,,,0.00,Wunderground v.1.15,2013-03-03 07:27:00,
2013-03-03 01:29:00,24.5,21.7,29.99,WNW,302,0.0,0.0,89,0.00,,,0.00,Wunderground v.1.15,2013-03-03 07:29:00,
2013-03-03 01:32:00,24.4,21.6,29.99,WNW,302,0.0,0.0,89,0.00,,,0.00,Wunderground v.1.15,2013-03-03 07:32:00,
2013-03-03 01:34:00,24.4,21.6,29.99,WNW,302,0.0,0.0,89,0.00,,,0.00,Wunderground v.1.15,2013-03-03 07:34:00,
2013-03-03 01:35:00,24.3,21.5,29.99,WNW,302,0.0,0.0,89,0.00,,,0.00,Wunderground v.1.15,2013-03-03 07:35:00,
2013-03-03 01:36:00,24.3,21.5,29.99,WNW,302,0.0,0.0,89,0.00,,,0.00,Wunderground v.1.15,2013-03-03 07:36:00,
2013-03-03 01:39:00,24.2,21.4,29.99,WNW,302,0.0,0.0,89,0.00,,,0.00,Wunderground v.1.15,2013-03-03 07:39:00,
2013-03-03 01:40:00,24.2,21.4,29.99,WNW,302,0.0,0.0,89,0.00,,,0.00,Wunderground v.1.15,2013-03-03 07:40:00,
2013-03-03 01:44:00,24.0,21.2,29.99,WNW,302,0.0,0.0,89,0.00,,,0.00,Wunderground v.1.15,2013-03-03 07:44:00,
2013-03-03 01:45:00,24.0,21.2,29.99,WNW,302,0.0,0.0,89,0.00,,,0.00,Wunderground v.1.15,2013-03-03 07:45:00,
2013-03-03 01:48:00,23.9,21.1,29.99,WNW,302,0.0,0.0,89,0.00,,,0.00,Wunderground v.1.15,2013-03-03 07:48:00,
2013-03-03 01:51:00,23.9,21.4,29.99,WNW,302,0.0,0.0,90,0.00,,,0.00,Wunderground v.1.15,2013-03-03 07:51:00,
2013-03-03 01:52:00,23.9,21.4,29.99,WNW,302,0.0,0.0,90,0.00,,,0.00,Wunderground v.1.15,2013-03-03 07:52:00,
2013-03-03 01:54:00,23.9,21.4,29.99,WNW,302,0.0,0.0,90,0.00,,,0.00,Wunderground v.1.15,2013-03-03 07:54:00,
2013-03-03 01:57:00,23.8,21.3,29.99,WNW,302,0.0,0.0,90,0.00,,,0.00,Wunderground v.1.15,2013-03-03 07:57:00,
2013-03-03 01:58:00,23.8,21.3,29.99,WNW,302,0.0,0.0,90,0.00,,,0.00,Wunderground v.1.15,2013-03-03 07:58:00,
2013-03-03 02:01:00,23.8,21.3,29.99,WNW,302,0.0,0.0,90,0.00,,,0.00,Wunderground v.1.15,2013-03-03 08:01:00,
2013-03-03 02:02:00,23.8,21.3,29.99,WNW,302,0.0,0.0,90,0.00,,,0.00,Wunderground v.1.15,2013-03-03 08:02:00,
2013-03-03 02:03:00,23.7,21.2,29.99,WNW,302,0.0,0.0,90,0.00,,,0.00,Wunderground v.1.15,2013-03-03 08:03:00,
2013-03-03 02:04:00,23.7,21.2,29.99,WNW,302,0.0,0.0,90,0.00,,,0.00,Wunderground v.1.15,2013-03-03 08:04:00,
2013-03-03 02:06:00,23.6,21.1,29.99,WNW,302,0.0,0.0,90,0.00,,,0.00,Wunderground v.1.15,2013-03-03 08:06:00,
2013-03-03 02:07:00,23.6,21.1,29.99,WNW,302,0.0,0.0,90,0.00,,,0.00,Wunderground v.1.15,2013-03-03 08:07:00,
2013-03-03 02:08:00,23.6,21.1,29.99,WNW,302,0.0,0.0,90,0.00,,,0.00,Wunderground v.1.15,2013-03-03 08:08:00,
2013-03-03 02:10:00,23.6,21.1,29.99,WNW,302,0.0,0.0,90,0.00,,,0.00,Wunderground v.1.15,2013-03-03 08:10:00,
2013-03-03 02:12:00,23.5,21.0,29.99,WNW,302,0.0,0.0,90,0.00,,,0.00,Wunderground v.1.15,2013-03-03 08:12:00,
2013-03-03 02:13:00,23.5,21.0,29.99,WNW,302,0.0,0.0,90,0.00,,,0.00,Wunderground v.1.15,2013-03-03 08:13:00,
2013-03-03 02:15:00,23.5,21.0,29.98,WNW,302,0.0,0.0,90,0.00,,,0.00,Wunderground v.1.15,2013-03-03 08:15:00,
2013-03-03 02:17:00,23.5,21.0,29.98,WNW,302,0.0,0.0,90,0.00,,,0.00,Wunderground v.1.15,2013-03-03 08:17:00,
2013-03-03 02:18:00,23.5,21.0,29.98,WNW,302,0.0,0.0,90,0.00,,,0.00,Wunderground v.1.15,2013-03-03 08:18:00,
2013-03-03 02:20:00,23.4,20.9,29.98,WNW,302,0.0,0.0,90,0.00,,,0.00,Wunderground v.1.15,2013-03-03 08:20:00,
2013-03-03 02:22:00,23.4,20.9,29.98,WNW,302,0.0,0.0,90,0.00,,,0.00,Wunderground v.1.15,2013-03-03 08:22:00,
2013-03-03 02:23:00,23.4,20.9,29.98,WNW,302,0.0,0.0,90,0.00,,,0.00,Wunderground v.1.15,2013-03-03 08:23:00,
2013-03-03 02:25:00,23.3,20.8,29.99,WNW,302,0.0,0.0,90,0.00,,,0.00,Wunderground v.1.15,2013-03-03 08:25:00,
2013-03-03 02:26:00,23.3,20.8,29.99,WNW,302,0.0,0.0,90,0.00,,,0.00,Wunderground v.1.15,2013-03-03 08:26:00,
2013-03-03 02:28:00,23.2,20.7,29.98,WNW,302,0.0,0.0,90,0.00,,,0.00,Wunderground v.1.15,2013-03-03 08:28:00,
2013-03-03 02:30:00,23.1,20.6,29.98,WNW,302,0.0,0.0,90,0.00,,,0.00,Wunderground v.1.15,2013-03-03 08:30:00,
2013-03-03 02:32:00,23.1,20.6,29.98,WNW,302,0.0,0.0,90,0.00,,,0.00,Wunderground v.1.15,2013-03-03 08:32:00,
2013-03-03 02:33:00,23.0,20.5,29.98,WNW,302,0.0,0.0,90,0.00,,,0.00,Wunderground v.1.15,2013-03-03 08:33:00,
2013-03-03 02:36:00,22.9,20.4,29.99,WNW,302,0.0,0.0,90,0.00,,,0.00,Wunderground v.1.15,2013-03-03 08:36:00,
2013-03-03 02:37:00,22.9,20.4,29.99,WNW,302,0.0,0.0,90,0.00,,,0.00,Wunderground v.1.15,2013-03-03 08:37:00,
2013-03-03 02:38:00,22.9,20.7,29.99,WNW,302,0.0,0.0,91,0.00,,,0.00,Wunderground v.1.15,2013-03-03 08:38:00,
2013-03-03 02:40:00,22.8,20.3,29.99,WNW,302,0.0,0.0,90,0.00,,,0.00,Wunderground v.1.15,2013-03-03 08:40:00,
2013-03-03 02:41:00,22.8,20.3,29.99,WNW,302,0.0,0.0,90,0.00,,,0.00,Wunderground v.1.15,2013-03-03 08:41:00,
2013-03-03 02:43:00,22.8,20.3,29.99,WNW,302,0.0,0.0,90,0.00,,,0.00,Wunderground v.1.15,2013-03-03 08:43:00,
2013-03-03 02:44:00,22.8,20.6,29.99,WNW,302,0.0,0.0,91,0.00,,,0.00,Wunderground v.1.15,2013-03-03 08:44:00,
2013-03-03 02:45:00,22.7,20.5,29.99,WNW,302,0.0,0.0,91,0.00,,,0.00,Wunderground v.1.15,2013-03-03 08:45:00,
2013-03-03 02:46:00,22.7,20.5,29.99,WNW,302,0.0,0.0,91,0.00,,,0.00,Wunderground v.1.15,2013-03-03 08:46:00,
2013-03-03 02:48:00,22.7,20.5,29.99,WNW,302,0.0,0.0,91,0.00,,,0.00,Wunderground v.1.15,2013-03-03 08:48:00,
2013-03-03 02:49:00,22.6,20.4,29.99,WNW,302,0.0,0.0,91,0.00,,,0.00,Wunderground v.1.15,2013-03-03 08:49:00,
2013-03-03 02:50:00,22.6,20.4,29.99,WNW,302,0.0,0.0,91,0.00,,,0.00,Wunderground v.1.15,2013-03-03 08:50:00,
2013-03-03 02:51:00,22.6,20.4,29.99,WNW,302,0.0,0.0,91,0.00,,,0.00,Wunderground v.1.15,2013-03-03 08:51:00,
2013-03-03 02:53:00,22.5,20.3,29.99,WNW,302,0.0,0.0,91,0.00,,,0.00,Wunderground v.1.15,2013-03-03 08:53:00,
2013-03-03 02:54:00,22.6,20.4,29.99,WNW,302,0.0,0.0,91,0.00,,,0.00,Wunderground v.1.15,2013-03-03 08:54:00,
2013-03-03 02:56:00,22.5,20.3,29.99,WNW,302,0.0,0.0,91,0.00,,,0.00,Wunderground v.1.15,2013-03-03 08:56:00,
2013-03-03 02:59:00,22.5,20.3,29.99,WNW,302,0.0,0.0,91,0.00,,,0.00,Wunderground v.1.15,2013-03-03 08:59:00,
2013-03-03 03:01:00,22.5,20.3,29.99,WNW,302,0.0,0.0,91,0.00,,,0.00,Wunderground v.1.15,2013-03-03 09:01:00,
2013-03-03 03:04:00,22.5,20.3,29.99,WNW,302,0.0,0.0,91,0.00,,,0.00,Wunderground v.1.15,2013-03-03 09:04:00,
2013-03-03 03:05:00,22.5,20.3,29.99,WNW,302,0.0,0.0,91,0.00,,,0.00,Wunderground v.1.15,2013-03-03 09:05:00,
2013-03-03 03:06:00,22.5,20.3,29.99,WNW,302,0.0,0.0,91,0.00,,,0.00,Wunderground v.1.15,2013-03-03 09:06:00,
2013-03-03 03:10:00,22.4,20.2,29.99,WNW,302,0.0,0.0,91,0.00,,,0.00,Wunderground v.1.15,2013-03-03 09:10:00,
2013-03-03 03:11:00,22.4,20.2,29.99,WNW,302,0.0,0.0,91,0.00,,,0.00,Wunderground v.1.15,2013-03-03 09:11:00,
2013-03-03 03:12:00,22.4,20.2,29.98,WNW,302,0.0,0.0,91,0.00,,,0.00,Wunderground v.1.15,2013-03-03 09:12:00,
2013-03-03 03:15:00,22.4,20.2,29.98,WNW,302,0.0,0.0,91,0.00,,,0.00,Wunderground v.1.15,2013-03-03 09:15:00,
2013-03-03 03:16:00,22.3,20.1,29.98,WNW,302,0.0,0.0,91,0.00,,,0.00,Wunderground v.1.15,2013-03-03 09:16:00,
2013-03-03 03:17:00,22.4,20.2,29.98,WNW,302,0.0,0.0,91,0.00,,,0.00,Wunderground v.1.15,2013-03-03 09:17:00,
2013-03-03 03:20:00,22.3,20.1,29.98,WNW,302,0.0,0.0,91,0.00,,,0.00,Wunderground v.1.15,2013-03-03 09:20:00,
2013-03-03 03:21:00,22.3,20.1,29.98,WNW,302,0.0,0.0,91,0.00,,,0.00,Wunderground v.1.15,2013-03-03 09:21:00,
2013-03-03 03:22:00,22.2,20.0,29.98,WNW,302,0.0,0.0,91,0.00,,,0.00,Wunderground v.1.15,2013-03-03 09:22:00,
2013-03-03 03:25:00,22.2,20.0,29.99,WNW,302,0.0,0.0,91,0.00,,,0.00,Wunderground v.1.15,2013-03-03 09:25:00,
2013-03-03 03:26:00,22.2,20.0,29.99,WNW,302,0.0,0.0,91,0.00,,,0.00,Wunderground v.1.15,2013-03-03 09:26:00,
2013-03-03 03:27:00,22.2,20.0,29.99,WNW,302,0.0,0.0,91,0.00,,,0.00,Wunderground v.1.15,2013-03-03 09:27:00,
2013-03-03 03:28:00,22.2,20.0,29.99,WNW,302,0.0,0.0,91,0.00,,,0.00,Wunderground v.1.15,2013-03-03 09:28:00,
2013-03-03 03:30:00,22.2,20.0,29.99,WNW,302,0.0,0.0,91,0.00,,,0.00,Wunderground v.1.15,2013-03-03 09:30:00,
2013-03-03 03:31:00,22.1,19.9,29.99,WNW,302,0.0,0.0,91,0.00,,,0.00,Wunderground v.1.15,2013-03-03 09:31:00,
2013-03-03 03:32:00,22.1,19.9,29.99,WNW,302,0.0,0.0,91,0.00,,,0.00,Wunderground v.1.15,2013-03-03 09:32:00,
2013-03-03 03:33:00,22.1,19.9,29.99,WNW,302,0.0,0.0,91,0.00,,,0.00,Wunderground v.1.15,2013-03-03 09:33:00,
2013-03-03 03:36:00,22.1,19.9,29.99,WNW,302,0.0,0.0,91,0.00,,,0.00,Wunderground v.1.15,2013-03-03 09:36:00,
2013-03-03 03:37:00,22.1,19.9,29.99,WNW,302,0.0,0.0,91,0.00,,,0.00,Wunderground v.1.15,2013-03-03 09:37:00,
2013-03-03 03:38:00,22.1,19.9,29.99,WNW,302,0.0,0.0,91,0.00,,,0.00,Wunderground v.1.15,2013-03-03 09:38:00,
2013-03-03 03:41:00,22.1,20.1,29.99,WNW,302,0.0,0.0,92,0.00,,,0.00,Wunderground v.1.15,2013-03-03 09:41:00,
2013-03-03 03:42:00,22.0,20.0,29.99,WNW,302,0.0,0.0,92,0.00,,,0.00,Wunderground v.1.15,2013-03-03 09:42:00,
2013-03-03 03:43:00,22.0,20.0,29.98,WNW,302,0.0,0.0,92,0.00,,,0.00,Wunderground v.1.15,2013-03-03 09:43:00,
2013-03-03 03:46:00,22.0,20.0,29.98,WNW,302,0.0,0.0,92,0.00,,,0.00,Wunderground v.1.15,2013-03-03 09:46:00,
2013-03-03 03:47:00,21.9,19.9,29.99,WNW,302,0.0,0.0,92,0.00,,,0.00,Wunderground v.1.15,2013-03-03 09:47:00,
2013-03-03 03:48:00,21.9,19.9,29.99,WNW,302,0.0,0.0,92,0.00,,,0.00,Wunderground v.1.15,2013-03-03 09:48:00,
2013-03-03 03:51:00,21.9,19.9,29.98,WNW,302,0.0,0.0,92,0.00,,,0.00,Wunderground v.1.15,2013-03-03 09:51:00,
2013-03-03 03:52:00,21.8,19.8,29.98,WNW,302,0.0,0.0,92,0.00,,,0.00,Wunderground v.1.15,2013-03-03 09:52:00,
2013-03-03 03:53:00,21.8,19.6,29.99,WNW,302,0.0,0.0,91,0.00,,,0.00,Wunderground v.1.15,2013-03-03 09:53:00,
2013-03-03 03:54:00,21.8,19.6,29.98,WNW,302,0.0,0.0,91,0.00,,,0.00,Wunderground v.1.15,2013-03-03 09:54:00,
2013-03-03 03:57:00,21.8,19.6,29.99,WNW,302,0.0,0.0,91,0.00,,,0.00,Wunderground v.1.15,2013-03-03 09:57:00,
2013-03-03 03:59:00,21.7,19.5,29.99,WNW,302,0.0,0.0,91,0.00,,,0.00,Wunderground v.1.15,2013-03-03 09:59:00,
2013-03-03 04:02:00,21.7,19.7,29.99,WNW,302,0.0,0.0,92,0.00,,,0.00,Wunderground v.1.15,2013-03-03 10:02:00,
2013-03-03 04:04:00,21.7,19.7,29.99,WNW,302,0.0,0.0,92,0.00,,,0.00,Wunderground v.1.15,2013-03-03 10:04:00,
2013-03-03 04:07:00,21.6,19.6,29.99,WNW,302,0.0,0.0,92,0.00,,,0.00,Wunderground v.1.15,2013-03-03 10:07:00,
2013-03-03 04:09:00,21.6,19.6,29.99,WNW,302,0.0,0.0,92,0.00,,,0.00,Wunderground v.1.15,2013-03-03 10:09:00,
2013-03-03 04:12:00,21.6,19.6,29.99,WNW,302,0.0,0.0,92,0.00,,,0.00,Wunderground v.1.15,2013-03-03 10:12:00,
2013-03-03 04:13:00,21.6,19.6,29.99,WNW,302,0.0,0.0,92,0.00,,,0.00,Wunderground v.1.15,2013-03-03 10:13:00,
2013-03-03 04:14:00,21.6,19.6,29.99,WNW,302,0.0,0.0,92,0.00,,,0.00,Wunderground v.1.15,2013-03-03 10:14:00,
2013-03-03 04:15:00,21.6,19.6,29.99,WNW,302,0.0,0.0,92,0.00,,,0.00,Wunderground v.1.15,2013-03-03 10:15:00,
2013-03-03 04:18:00,21.6,19.6,29.99,WNW,302,0.0,0.0,92,0.00,,,0.00,Wunderground v.1.15,2013-03-03 10:18:00,
2013-03-03 04:19:00,21.6,19.6,29.99,WNW,302,0.0,0.0,92,0.00,,,0.00,Wunderground v.1.15,2013-03-03 10:19:00,
2013-03-03 04:20:00,21.6,19.6,29.99,WNW,302,0.0,0.0,92,0.00,,,0.00,Wunderground v.1.15,2013-03-03 10:20:00,
2013-03-03 04:23:00,21.6,19.6,29.99,WNW,302,0.0,0.0,92,0.00,,,0.00,Wunderground v.1.15,2013-03-03 10:23:00,
2013-03-03 04:25:00,21.5,19.5,29.99,WNW,302,0.0,0.0,92,0.00,,,0.00,Wunderground v.1.15,2013-03-03 10:25:00,
2013-03-03 04:26:00,21.5,19.5,29.99,WNW,302,0.0,0.0,92,0.00,,,0.00,Wunderground v.1.15,2013-03-03 10:26:00,
2013-03-03 04:28:00,21.5,19.5,29.99,WNW,302,0.0,0.0,92,0.00,,,0.00,Wunderground v.1.15,2013-03-03 10:28:00,
2013-03-03 04:30:00,21.5,19.5,29.98,WNW,302,0.0,0.0,92,0.00,,,0.00,Wunderground v.1.15,2013-03-03 10:30:00,
2013-03-03 04:31:00,21.5,19.5,29.98,WNW,302,0.0,0.0,92,0.00,,,0.00,Wunderground v.1.15,2013-03-03 10:31:00,
2013-03-03 04:33:00,21.4,19.4,29.98,WNW,302,0.0,0.0,92,0.00,,,0.00,Wunderground v.1.15,2013-03-03 10:33:00,
2013-03-03 04:35:00,21.4,19.4,29.98,WNW,302,0.0,0.0,92,0.00,,,0.00,Wunderground v.1.15,2013-03-03 10:35:00,
2013-03-03 04:36:00,21.4,19.4,29.98,WNW,302,0.0,0.0,92,0.00,,,0.00,Wunderground v.1.15,2013-03-03 10:36:00,
2013-03-03 04:38:00,21.3,19.3,29.98,WNW,302,0.0,0.0,92,0.00,,,0.00,Wunderground v.1.15,2013-03-03 10:38:00,
2013-03-03 04:39:00,21.3,19.3,29.98,WNW,302,0.0,0.0,92,0.00,,,0.00,Wunderground v.1.15,2013-03-03 10:39:00,
2013-03-03 04:41:00,21.3,19.3,29.98,WNW,302,0.0,0.0,92,0.00,,,0.00,Wunderground v.1.15,2013-03-03 10:41:00,
2013-03-03 04:43:00,21.3,19.3,29.98,WNW,302,0.0,0.0,92,0.00,,,0.00,Wunderground v.1.15,2013-03-03 10:43:00,
2013-03-03 04:44:00,21.3,19.3,29.98,WNW,302,0.0,0.0,92,0.00,,,0.00,Wunderground v.1.15,2013-03-03 10:44:00,
2013-03-03 04:46:00,21.2,19.2,29.98,WNW,302,0.0,0.0,92,0.00,,,0.00,Wunderground v.1.15,2013-03-03 10:46:00,
2013-03-03 04:49:00,21.2,19.2,29.98,WNW,302,0.0,0.0,92,0.00,,,0.00,Wunderground v.1.15,2013-03-03 10:49:00,
2013-03-03 04:51:00,21.2,19.2,29.99,WNW,302,0.0,0.0,92,0.00,,,0.00,Wunderground v.1.15,2013-03-03 10:51:00,
2013-03-03 04:52:00,21.2,19.2,29.99,WNW,302,0.0,0.0,92,0.00,,,0.00,Wunderground v.1.15,2013-03-03 10:52:00,
2013-03-03 04:54:00,21.2,19.2,29.99,WNW,302,0.0,0.0,92,0.00,,,0.00,Wunderground v.1.15,2013-03-03 10:54:00,
2013-03-03 04:56:00,21.1,19.1,29.99,WNW,302,0.0,0.0,92,0.00,,,0.00,Wunderground v.1.15,2013-03-03 10:56:00,
2013-03-03 04:57:00,21.2,19.2,29.99,WNW,302,0.0,0.0,92,0.00,,,0.00,Wunderground v.1.15,2013-03-03 10:57:00,
2013-03-03 05:00:00,21.1,19.1,29.98,WNW,302,0.0,0.0,92,0.00,,,0.00,Wunderground v.1.15,2013-03-03 11:00:00,
2013-03-03 05:01:00,21.1,19.1,29.98,WNW,302,0.0,0.0,92,0.00,,,0.00,Wunderground v.1.15,2013-03-03 11:01:00,
2013-03-03 05:02:00,21.1,19.1,29.98,WNW,302,0.0,0.0,92,0.00,,,0.00,Wunderground v.1.15,2013-03-03 11:02:00,
2013-03-03 05:05:00,21.1,19.1,29.98,WNW,302,0.0,0.0,92,0.00,,,0.00,Wunderground v.1.15,2013-03-03 11:05:00,
2013-03-03 05:06:00,21.1,19.1,29.98,WNW,302,0.0,0.0,92,0.00,,,0.00,Wunderground v.1.15,2013-03-03 11:06:00,
2013-03-03 05:07:00,21.0,19.0,29.98,WNW,302,0.0,0.0,92,0.00,,,0.00,Wunderground v.1.15,2013-03-03 11:07:00,
2013-03-03 05:10:00,20.9,18.9,29.98,WNW,302,0.0,0.0,92,0.00,,,0.00,Wunderground v.1.15,2013-03-03 11:10:00,
2013-03-03 05:11:00,20.9,18.9,29.98,WNW,302,0.0,0.0,92,0.00,,,0.00,Wunderground v.1.15,2013-03-03 11:11:00,
2013-03-03 05:13:00,20.9,18.9,29.98,WNW,302,0.0,0.0,92,0.00,,,0.00,Wunderground v.1.15,2013-03-03 11:13:00,
2013-03-03 05:15:00,20.8,18.8,29.98,WNW,302,0.0,0.0,92,0.00,,,0.00,Wunderground v.1.15,2013-03-03 11:15:00,
2013-03-03 05:16:00,20.8,18.8,29.98,WNW,302,0.0,0.0,92,0.00,,,0.00,Wunderground v.1.15,2013-03-03 11:16:00,
2013-03-03 05:17:00,20.8,18.8,29.98,WNW,302,0.0,0.0,92,0.00,,,0.00,Wunderground v.1.15,2013-03-03 11:17:00,
2013-03-03 05:19:00,20.7,18.7,29.98,WNW,302,0.0,0.0,92,0.00,,,0.00,Wunderground v.1.15,2013-03-03 11:19:00,
2013-03-03 05:21:00,20.7,18.7,29.98,WNW,302,0.0,0.0,92,0.00,,,0.00,Wunderground v.1.15,2013-03-03 11:21:00,
2013-03-03 05:22:00,20.7,18.7,29.98,WNW,302,0.0,0.0,92,0.00,,,0.00,Wunderground v.1.15,2013-03-03 11:22:00,
2013-03-03 05:24:00,20.7,18.7,29.98,WNW,302,0.0,0.0,92,0.00,,,0.00,Wunderground v.1.15,2013-03-03 11:24:00,
2013-03-03 05:26:00,20.7,18.7,29.98,WNW,302,0.0,0.0,92,0.00,,,0.00,Wunderground v.1.15,2013-03-03 11:26:00,
2013-03-03 05:27:00,20.7,18.7,29.98,WNW,302,0.0,0.0,92,0.00,,,0.00,Wunderground v.1.15,2013-03-03 11:27:00,
2013-03-03 05:30:00,20.7,18.7,29.98,WNW,302,0.0,0.0,92,0.00,,,0.00,Wunderground v.1.15,2013-03-03 11:30:00,
2013-03-03 05:31:00,20.7,18.7,29.98,WNW,302,0.0,0.0,92,0.00,,,0.00,Wunderground v.1.15,2013-03-03 11:31:00,
2013-03-03 05:32:00,20.7,18.7,29.98,WNW,302,0.0,0.0,92,0.00,,,0.00,Wunderground v.1.15,2013-03-03 11:32:00,
2013-03-03 05:35:00,20.7,18.7,29.98,WNW,302,0.0,0.0,92,0.00,,,0.00,Wunderground v.1.15,2013-03-03 11:35:00,
2013-03-03 05:36:00,20.7,18.7,29.98,WNW,302,0.0,0.0,92,0.00,,,0.00,Wunderground v.1.15,2013-03-03 11:36:00,
2013-03-03 05:37:00,20.7,18.7,29.98,WNW,302,0.0,0.0,92,0.00,,,0.00,Wunderground v.1.15,2013-03-03 11:37:00,
2013-03-03 05:38:00,20.7,18.7,29.98,WNW,302,0.0,0.0,92,0.00,,,0.00,Wunderground v.1.15,2013-03-03 11:38:00,
2013-03-03 05:41:00,20.7,18.7,29.98,WNW,302,0.0,0.0,92,0.00,,,0.00,Wunderground v.1.15,2013-03-03 11:41:00,
2013-03-03 05:42:00,20.6,18.6,29.98,WNW,302,0.0,0.0,92,0.00,,,0.00,Wunderground v.1.15,2013-03-03 11:42:00,
2013-03-03 05:43:00,20.6,18.6,29.98,WNW,302,0.0,0.0,92,0.00,,,0.00,Wunderground v.1.15,2013-03-03 11:43:00,
2013-03-03 05:46:00,20.6,18.6,29.98,WNW,302,0.0,0.0,92,0.00,,,0.00,Wunderground v.1.15,2013-03-03 11:46:00,
2013-03-03 05:47:00,20.6,18.6,29.98,WNW,302,0.0,0.0,92,0.00,,,0.00,Wunderground v.1.15,2013-03-03 11:47:00,
2013-03-03 05:48:00,20.6,18.6,29.98,WNW,302,0.0,0.0,92,0.00,,,0.00,Wunderground v.1.15,2013-03-03 11:48:00,
2013-03-03 05:52:00,20.6,18.6,29.99,WNW,302,0.0,0.0,92,0.00,,,0.00,Wunderground v.1.15,2013-03-03 11:52:00,
2013-03-03 05:53:00,20.6,18.6,29.99,WNW,302,0.0,0.0,92,0.00,,,0.00,Wunderground v.1.15,2013-03-03 11:53:00,
2013-03-03 05:57:00,20.5,18.5,29.99,WNW,302,0.0,0.0,92,0.00,,,0.00,Wunderground v.1.15,2013-03-03 11:57:00,
2013-03-03 05:58:00,20.5,18.5,29.99,WNW,302,0.0,0.0,92,0.00,,,0.00,Wunderground v.1.15,2013-03-03 11:58:00,
2013-03-03 06:03:00,20.5,18.5,29.99,WNW,302,0.0,0.0,92,0.00,,,0.00,Wunderground v.1.15,2013-03-03 12:03:00,
2013-03-03 06:04:00,20.6,18.6,29.99,WNW,302,0.0,0.0,92,0.00,,,0.00,Wunderground v.1.15,2013-03-03 12:04:00,
2013-03-03 06:08:00,20.5,18.5,29.99,WNW,302,0.0,0.0,92,0.00,,,0.00,Wunderground v.1.15,2013-03-03 12:08:00,
2013-03-03 06:09:00,20.5,18.5,29.99,WNW,302,0.0,0.0,92,0.00,,,0.00,Wunderground v.1.15,2013-03-03 12:09:00,
2013-03-03 06:13:00,20.4,18.4,29.99,WNW,302,0.0,0.0,92,0.00,,,0.00,Wunderground v.1.15,2013-03-03 12:13:00,
2013-03-03 06:14:00,20.4,18.4,29.99,WNW,302,0.0,0.0,92,0.00,,,0.00,Wunderground v.1.15,2013-03-03 12:14:00,
2013-03-03 06:18:00,20.3,18.3,29.99,WNW,302,0.0,0.0,92,0.00,,,0.00,Wunderground v.1.15,2013-03-03 12:18:00,
2013-03-03 06:19:00,20.3,18.3,29.99,WNW,302,0.0,0.0,92,0.00,,,0.00,Wunderground v.1.15,2013-03-03 12:19:00,
2013-03-03 06:20:00,20.3,18.3,29.99,WNW,302,0.0,0.0,92,0.00,,,0.00,Wunderground v.1.15,2013-03-03 12:20:00,
2013-03-03 06:23:00,20.2,18.2,29.99,WNW,302,0.0,0.0,92,0.00,,,0.00,Wunderground v.1.15,2013-03-03 12:23:00,
2013-03-03 06:24:00,20.2,18.2,29.99,WNW,302,0.0,0.0,92,0.00,,,0.00,Wunderground v.1.15,2013-03-03 12:24:00,
2013-03-03 06:25:00,20.2,18.2,29.99,WNW,302,0.0,0.0,92,0.00,,,0.00,Wunderground v.1.15,2013-03-03 12:25:00,
2013-03-03 06:29:00,20.1,18.1,29.99,WNW,302,0.0,0.0,92,0.00,,,0.00,Wunderground v.1.15,2013-03-03 12:29:00,
2013-03-03 06:30:00,20.1,18.1,29.99,WNW,302,0.0,0.0,92,0.00,,,0.00,Wunderground v.1.15,2013-03-03 12:30:00,
2013-03-03 06:34:00,20.2,18.2,29.98,WNW,302,0.0,0.0,92,0.00,,,0.00,Wunderground v.1.15,2013-03-03 12:34:00,
2013-03-03 06:35:00,20.1,18.1,29.98,WNW,302,0.0,0.0,92,0.00,,,0.00,Wunderground v.1.15,2013-03-03 12:35:00,
2013-03-03 06:40:00,20.2,18.5,29.99,WNW,301,0.0,0.0,93,0.00,,,0.00,Wunderground v.1.15,2013-03-03 12:40:00,
2013-03-03 06:41:00,20.2,18.5,29.99,WNW,302,0.0,0.0,93,0.00,,,0.00,Wunderground v.1.15,2013-03-03 12:41:00,
2013-03-03 06:45:00,20.2,18.5,29.99,WNW,301,0.0,0.0,93,0.00,,,0.00,Wunderground v.1.15,2013-03-03 12:45:00,
2013-03-03 06:46:00,20.2,18.5,29.99,WNW,302,0.0,0.0,93,0.00,,,0.00,Wunderground v.1.15,2013-03-03 12:46:00,
2013-03-03 06:50:00,20.2,18.5,29.99,WNW,302,0.0,0.0,93,0.00,,,0.00,Wunderground v.1.15,2013-03-03 12:50:00,
2013-03-03 06:51:00,20.2,18.5,29.98,WNW,302,0.0,0.0,93,0.00,,,0.00,Wunderground v.1.15,2013-03-03 12:51:00,
2013-03-03 06:55:00,20.2,18.2,29.98,WNW,302,0.0,0.0,92,0.00,,,0.00,Wunderground v.1.15,2013-03-03 12:55:00,
2013-03-03 06:56:00,20.2,18.2,29.98,WNW,302,0.0,0.0,92,0.00,,,0.00,Wunderground v.1.15,2013-03-03 12:56:00,
2013-03-03 06:57:00,20.2,18.2,29.98,WNW,302,0.0,0.0,92,0.00,,,0.00,Wunderground v.1.15,2013-03-03 12:57:00,
2013-03-03 07:00:00,20.3,18.6,29.98,WNW,302,0.0,0.0,93,0.00,,,0.00,Wunderground v.1.15,2013-03-03 13:00:00,
2013-03-03 07:01:00,20.4,18.7,29.98,WNW,302,0.0,0.0,93,0.00,,,0.00,Wunderground v.1.15,2013-03-03 13:01:00,
2013-03-03 07:02:00,20.4,18.7,29.98,WNW,302,0.0,0.0,93,0.00,,,0.00,Wunderground v.1.15,2013-03-03 13:02:00,
2013-03-03 07:06:00,20.7,19.0,29.98,WNW,302,0.0,0.0,93,0.00,,,0.00,Wunderground v.1.15,2013-03-03 13:06:00,
2013-03-03 07:07:00,20.7,19.0,29.98,WNW,302,0.0,0.0,93,0.00,,,0.00,Wunderground v.1.15,2013-03-03 13:07:00,
2013-03-03 07:09:00,20.9,19.2,29.98,WNW,302,0.0,0.0,93,0.00,,,0.00,Wunderground v.1.15,2013-03-03 13:09:00,
2013-03-03 07:11:00,21.1,19.4,29.98,WNW,302,0.0,0.0,93,0.00,,,0.00,Wunderground v.1.15,2013-03-03 13:11:00,
2013-03-03 07:12:00,21.2,19.5,29.98,WNW,302,0.0,0.0,93,0.00,,,0.00,Wunderground v.1.15,2013-03-03 13:12:00,
2013-03-03 07:14:00,21.3,19.6,29.99,WNW,302,0.0,0.0,93,0.00,,,0.00,Wunderground v.1.15,2013-03-03 13:14:00,
2013-03-03 07:16:00,21.4,19.7,29.99,WNW,301,0.0,0.0,93,0.00,,,0.00,Wunderground v.1.15,2013-03-03 13:16:00,
2013-03-03 07:18:00,21.5,19.8,29.99,WNW,302,0.0,0.0,93,0.00,,,0.00,Wunderground v.1.15,2013-03-03 13:18:00,
2013-03-03 07:19:00,21.6,19.9,29.98,WNW,301,0.0,0.0,93,0.00,,,0.00,Wunderground v.1.15,2013-03-03 13:19:00,
2013-03-03 07:21:00,21.7,20.0,29.99,WNW,302,0.0,0.0,93,0.00,,,0.00,Wunderground v.1.15,2013-03-03 13:21:00,
2013-03-03 07:23:00,21.8,20.1,29.99,WNW,302,0.0,0.0,93,0.00,,,0.00,Wunderground v.1.15,2013-03-03 13:23:00,
2013-03-03 07:25:00,22.0,20.3,29.99,WNW,302,0.0,0.0,93,0.00,,,0.00,Wunderground v.1.15,2013-03-03 13:25:00,
2013-03-03 07:26:00,22.1,20.4,29.99,WNW,302,0.0,0.0,93,0.00,,,0.00,Wunderground v.1.15,2013-03-03 13:26:00,
2013-03-03 07:28:00,22.3,20.6,29.99,WNW,302,0.0,0.0,93,0.00,,,0.00,Wunderground v.1.15,2013-03-03 13:28:00,
2013-03-03 07:29:00,22.4,20.7,29.99,WNW,302,0.0,0.0,93,0.00,,,0.00,Wunderground v.1.15,2013-03-03 13:29:00,
2013-03-03 07:30:00,22.5,20.8,29.99,WNW,301,0.0,0.0,93,0.00,,,0.00,Wunderground v.1.15,2013-03-03 13:30:00,
2013-03-03 07:32:00,22.7,21.0,29.99,WNW,302,0.0,0.0,93,0.00,,,0.00,Wunderground v.1.15,2013-03-03 13:32:00,
2013-03-03 07:33:00,23.0,21.5,29.99,WNW,302,0.0,0.0,94,0.00,,,0.00,Wunderground v.1.15,2013-03-03 13:33:00,
2013-03-03 07:34:00,23.0,21.5,29.99,WNW,302,0.0,0.0,94,0.00,,,0.00,Wunderground v.1.15,2013-03-03 13:34:00,
2013-03-03 07:35:00,23.2,21.7,30.00,WNW,302,0.0,0.0,94,0.00,,,0.00,Wunderground v.1.15,2013-03-03 13:35:00,
2013-03-03 07:37:00,23.6,22.1,29.99,WNW,301,0.0,0.0,94,0.00,,,0.00,Wunderground v.1.15,2013-03-03 13:37:00,
2013-03-03 07:39:00,23.7,22.2,30.00,WNW,302,0.0,0.0,94,0.00,,,0.00,Wunderground v.1.15,2013-03-03 13:39:00,
2013-03-03 07:41:00,24.0,22.5,30.00,WNW,302,0.0,0.0,94,0.00,,,0.00,Wunderground v.1.15,2013-03-03 13:41:00,
2013-03-03 07:42:00,24.2,22.7,30.00,WNW,302,0.0,0.0,94,0.00,,,0.00,Wunderground v.1.15,2013-03-03 13:42:00,
2013-03-03 07:44:00,24.4,22.9,30.00,WNW,302,0.0,0.0,94,0.00,,,0.00,Wunderground v.1.15,2013-03-03 13:44:00,
2013-03-03 07:46:00,24.7,23.2,30.00,WNW,302,0.0,0.0,94,0.00,,,0.00,Wunderground v.1.15,2013-03-03 13:46:00,
2013-03-03 07:49:00,25.1,23.6,30.00,WNW,302,0.0,0.0,94,0.00,,,0.00,Wunderground v.1.15,2013-03-03 13:49:00,
2013-03-03 07:50:00,25.3,23.8,30.00,WNW,302,0.0,0.0,94,0.00,,,0.00,Wunderground v.1.15,2013-03-03 13:50:00,
2013-03-03 07:51:00,25.5,24.0,30.00,WNW,302,0.0,0.0,94,0.00,,,0.00,Wunderground v.1.15,2013-03-03 13:51:00,
2013-03-03 07:54:00,26.0,24.5,30.01,WNW,302,0.0,0.0,94,0.00,,,0.00,Wunderground v.1.15,2013-03-03 13:54:00,
2013-03-03 07:55:00,26.2,24.7,30.01,WNW,302,0.0,0.0,94,0.00,,,0.00,Wunderground v.1.15,2013-03-03 13:55:00,
2013-03-03 07:56:00,26.2,24.7,30.01,WNW,301,0.0,0.0,94,0.00,,,0.00,Wunderground v.1.15,2013-03-03 13:56:00,
2013-03-03 07:59:00,26.6,25.1,30.01,WNW,302,0.0,0.0,94,0.00,,,0.00,Wunderground v.1.15,2013-03-03 13:59:00,
2013-03-03 08:00:00,26.9,25.4,30.01,WNW,302,0.0,0.0,94,0.00,,,0.00,Wunderground v.1.15,2013-03-03 14:00:00,
2013-03-03 08:01:00,26.9,25.4,30.01,WNW,302,0.0,0.0,94,0.00,,,0.00,Wunderground v.1.15,2013-03-03 14:01:00,
2013-03-03 08:04:00,27.4,25.9,30.01,WNW,302,0.0,0.0,94,0.00,,,0.00,Wunderground v.1.15,2013-03-03 14:04:00,
2013-03-03 08:06:00,27.6,26.1,30.01,WNW,302,0.0,0.0,94,0.00,,,0.00,Wunderground v.1.15,2013-03-03 14:06:00,
2013-03-03 08:09:00,28.1,26.6,30.01,WNW,302,0.0,0.0,94,0.00,,,0.00,Wunderground v.1.15,2013-03-03 14:09:00,
2013-03-03 08:11:00,28.4,26.6,30.01,WNW,302,0.0,0.0,93,0.00,,,0.00,Wunderground v.1.15,2013-03-03 14:11:00,
2013-03-03 08:12:00,28.5,27.0,30.01,WNW,300,0.0,0.0,94,0.00,,,0.00,Wunderground v.1.15,2013-03-03 14:12:00,
2013-03-03 08:15:00,28.9,27.1,30.01,WNW,302,0.0,0.0,93,0.00,,,0.00,Wunderground v.1.15,2013-03-03 14:15:00,
2013-03-03 08:16:00,29.2,27.4,30.01,WNW,302,0.0,0.0,93,0.00,,,0.00,Wunderground v.1.15,2013-03-03 14:16:00,
2013-03-03 08:17:00,29.2,27.4,30.01,WNW,302,0.0,0.0,93,0.00,,,0.00,Wunderground v.1.15,2013-03-03 14:17:00,
2013-03-03 08:20:00,29.6,27.6,30.01,WNW,302,0.0,0.0,92,0.00,,,0.00,Wunderground v.1.15,2013-03-03 14:20:00,
2013-03-03 08:22:00,29.9,27.6,30.01,WNW,302,0.0,0.0,91,0.00,,,0.00,Wunderground v.1.15,2013-03-03 14:22:00,
2013-03-03 08:25:00,30.5,28.2,30.01,WNW,302,0.0,0.0,91,0.00,,,0.00,Wunderground v.1.15,2013-03-03 14:25:00,
2013-03-03 08:27:00,30.8,28.2,30.01,WNW,302,0.0,0.0,90,0.00,,,0.00,Wunderground v.1.15,2013-03-03 14:27:00,
2013-03-03 08:28:00,30.9,28.3,30.01,WNW,302,0.0,0.0,90,0.00,,,0.00,Wunderground v.1.15,2013-03-03 14:28:00,
2013-03-03 08:30:00,31.5,28.6,30.01,WNW,302,0.0,0.0,89,0.00,,,0.00,Wunderground v.1.15,2013-03-03 14:30:00,
2013-03-03 08:32:00,31.8,28.7,30.01,WNW,302,0.0,0.0,88,0.00,,,0.00,Wunderground v.1.15,2013-03-03 14:32:00,
2013-03-03 08:33:00,31.9,28.8,30.01,WNW,302,0.0,0.0,88,0.00,,,0.00,Wunderground v.1.15,2013-03-03 14:33:00,
2013-03-03 08:36:00,32.2,28.5,30.01,WNW,302,0.0,0.0,86,0.00,,,0.00,Wunderground v.1.15,2013-03-03 14:36:00,
2013-03-03 08:38:00,32.6,27.7,30.01,WNW,302,0.0,0.0,82,0.00,,,0.00,Wunderground v.1.15,2013-03-03 14:38:00,
2013-03-03 08:41:00,33.0,26.9,30.01,WNW,302,0.0,0.0,78,0.00,,,0.00,Wunderground v.1.15,2013-03-03 14:41:00,
2013-03-03 08:43:00,33.1,25.1,30.01,WNW,300,0.0,0.0,72,0.00,,,0.00,Wunderground v.1.15,2013-03-03 14:43:00,
2013-03-03 08:46:00,33.5,25.4,30.01,WNW,302,0.0,0.0,72,0.00,,,0.00,Wunderground v.1.15,2013-03-03 14:46:00,
2013-03-03 08:48:00,33.7,24.3,30.01,WNW,302,0.0,0.0,68,0.00,,,0.00,Wunderground v.1.15,2013-03-03 14:48:00,
2013-03-03 08:49:00,33.7,23.9,30.01,WNW,302,0.0,0.0,67,0.00,,,0.00,Wunderground v.1.15,2013-03-03 14:49:00,
2013-03-03 08:51:00,33.9,24.1,30.01,SW,225,0.0,0.0,67,0.00,,,0.00,Wunderground v.1.15,2013-03-03 14:51:00,
2013-03-03 08:53:00,34.1,24.3,30.01,SW,225,0.0,0.0,67,0.00,,,0.00,Wunderground v.1.15,2013-03-03 14:53:00,
2013-03-03 08:54:00,34.1,23.9,30.01,SW,225,0.0,0.0,66,0.00,,,0.00,Wunderground v.1.15,2013-03-03 14:54:00,
2013-03-03 08:57:00,34.2,23.7,30.01,SW,225,0.0,0.0,65,0.00,,,0.00,Wunderground v.1.15,2013-03-03 14:57:00,
2013-03-03 08:58:00,34.1,23.6,30.01,SW,225,0.0,0.0,65,0.00,,,0.00,Wunderground v.1.15,2013-03-03 14:58:00,
2013-03-03 08:59:00,34.1,23.6,30.00,SW,225,0.0,0.0,65,0.00,,,0.00,Wunderground v.1.15,2013-03-03 14:59:00,
2013-03-03 09:00:00,34.1,23.9,30.00,SW,225,0.0,0.0,66,0.00,,,0.00,Wunderground v.1.15,2013-03-03 15:00:00,
2013-03-03 09:02:00,34.3,23.7,30.00,SW,224,0.0,0.0,65,0.00,,,0.00,Wunderground v.1.15,2013-03-03 15:02:00,
2013-03-03 09:03:00,34.4,24.6,30.00,East,93,0.0,1.0,67,0.00,,,0.00,Wunderground v.1.15,2013-03-03 15:03:00,
2013-03-03 09:04:00,34.4,24.6,30.00,East,92,0.0,1.0,67,0.00,,,0.00,Wunderground v.1.15,2013-03-03 15:04:00,
2013-03-03 09:06:00,34.4,24.6,30.00,East,93,0.0,1.0,67,0.00,,,0.00,Wunderground v.1.15,2013-03-03 15:06:00,
2013-03-03 09:07:00,34.5,23.6,30.00,East,93,0.0,1.0,64,0.00,,,0.00,Wunderground v.1.15,2013-03-03 15:07:00,
2013-03-03 09:09:00,34.6,23.3,30.00,East,93,0.0,1.0,63,0.00,,,0.00,Wunderground v.1.15,2013-03-03 15:09:00,
2013-03-03 09:10:00,34.7,23.8,30.00,East,92,0.0,1.0,64,0.00,,,0.00,Wunderground v.1.15,2013-03-03 15:10:00,
2013-03-03 09:11:00,34.8,23.1,30.00,SSE,164,0.0,1.0,62,0.00,,,0.00,Wunderground v.1.15,2013-03-03 15:11:00,
2013-03-03 09:13:00,34.9,23.9,30.00,SSE,165,0.0,0.0,64,0.00,,,0.00,Wunderground v.1.15,2013-03-03 15:13:00,
2013-03-03 09:14:00,34.9,23.2,30.00,SSE,165,2.0,3.0,62,0.00,,,0.00,Wunderground v.1.15,2013-03-03 15:14:00,
2013-03-03 09:15:00,34.8,22.7,30.00,South,184,0.0,3.0,61,0.00,,,0.00,Wunderground v.1.15,2013-03-03 15:15:00,
2013-03-03 09:17:00,34.7,23.4,30.00,South,184,0.0,3.0,63,0.00,,,0.00,Wunderground v.1.15,2013-03-03 15:17:00,
2013-03-03 09:19:00,34.8,23.1,30.00,SSW,192,0.0,3.0,62,0.00,,,0.00,Wunderground v.1.15,2013-03-03 15:19:00,
2013-03-03 09:20:00,34.9,23.6,30.00,SSW,193,0.0,3.0,63,0.00,,,0.00,Wunderground v.1.15,2013-03-03 15:20:00,
2013-03-03 09:23:00,35.0,22.9,30.00,South,175,7.0,7.0,61,0.00,,,0.00,Wunderground v.1.15,2013-03-03 15:23:00,
2013-03-03 09:24:00,35.0,22.9,30.00,SSE,165,2.0,7.0,61,0.00,,,0.00,Wunderground v.1.15,2013-03-03 15:24:00,
2013-03-03 09:25:00,34.8,22.7,30.00,South,185,1.0,7.0,61,0.00,,,0.00,Wunderground v.1.15,2013-03-03 15:25:00,
2013-03-03 09:28:00,34.7,23.4,30.00,SSE,150,0.0,7.0,63,0.00,,,0.00,Wunderground v.1.15,2013-03-03 15:28:00,
2013-03-03 09:29:00,34.9,23.6,30.00,SSW,194,0.0,7.0,63,0.00,,,0.00,Wunderground v.1.15,2013-03-03 15:29:00,
2013-03-03 09:30:00,35.0,23.3,30.00,SSW,210,0.0,7.0,62,0.00,,,0.00,Wunderground v.1.15,2013-03-03 15:30:00,
2013-03-03 09:33:00,35.7,25.4,30.00,SSW,203,0.0,1.0,66,0.00,,,0.00,Wunderground v.1.15,2013-03-03 15:33:00,
2013-03-03 09:34:00,35.8,24.8,30.00,SSW,204,0.0,1.0,64,0.00,,,0.00,Wunderground v.1.15,2013-03-03 15:34:00,
2013-03-03 09:35:00,35.9,24.9,30.00,SSW,204,0.0,1.0,64,0.00,,,0.00,Wunderground v.1.15,2013-03-03 15:35:00,
2013-03-03 09:36:00,35.9,23.0,30.00,SSW,204,0.0,1.0,59,0.00,,,0.00,Wunderground v.1.15,2013-03-03 15:36:00,
2013-03-03 09:38:00,36.0,23.8,30.00,SSW,204,0.0,1.0,61,0.00,,,0.00,Wunderground v.1.15,2013-03-03 15:38:00,
2013-03-03 09:40:00,36.1,24.3,30.00,SSW,204,0.0,1.0,62,0.00,,,0.00,Wunderground v.1.15,2013-03-03 15:40:00,
2013-03-03 09:41:00,36.1,23.1,30.00,SSW,204,0.0,1.0,59,0.00,,,0.00,Wunderground v.1.15,2013-03-03 15:41:00,
2013-03-03 09:43:00,36.0,22.6,30.00,SSW,204,0.0,0.0,58,0.00,,,0.00,Wunderground v.1.15,2013-03-03 15:43:00,
2013-03-03 09:45:00,36.0,23.0,30.00,SSW,204,0.0,0.0,59,0.00,,,0.00,Wunderground v.1.15,2013-03-03 15:45:00,
2013-03-03 09:47:00,36.2,24.0,30.00,South,176,0.0,1.0,61,0.00,,,0.00,Wunderground v.1.15,2013-03-03 15:47:00,
2013-03-03 09:49:00,36.4,23.4,30.00,SSW,195,0.0,3.0,59,0.00,,,0.00,Wunderground v.1.15,2013-03-03 15:49:00,
2013-03-03 09:50:00,36.5,24.3,30.00,SSW,194,0.0,3.0,61,0.00,,,0.00,Wunderground v.1.15,2013-03-03 15:50:00,
2013-03-03 09:51:00,36.6,24.0,30.00,South,190,1.0,3.0,60,0.00,,,0.00,Wunderground v.1.15,2013-03-03 15:51:00,
2013-03-03 09:52:00,36.6,23.2,30.00,SSE,168,0.0,0.0,58,0.00,,,0.00,Wunderground v.1.15,2013-03-03 15:52:00,
2013-03-03 09:54:00,36.7,24.1,30.01,SSE,168,0.0,0.0,60,0.00,,,0.00,Wunderground v.1.15,2013-03-03 15:54:00,
2013-03-03 09:55:00,36.8,24.2,30.00,WNW,299,0.0,0.0,60,0.00,,,0.00,Wunderground v.1.15,2013-03-03 15:55:00,
2013-03-03 09:56:00,36.9,24.3,30.00,WNW,299,0.0,0.0,60,0.00,,,0.00,Wunderground v.1.15,2013-03-03 15:56:00,
2013-03-03 09:58:00,37.1,24.1,30.00,SW,224,0.0,0.0,59,0.00,,,0.00,Wunderground v.1.15,2013-03-03 15:58:00,
2013-03-03 09:59:00,37.2,24.6,30.00,SW,223,0.0,0.0,60,0.00,,,0.00,Wunderground v.1.15,2013-03-03 15:59:00,
2013-03-03 10:00:00,37.3,24.3,30.00,SW,236,0.0,0.0,59,0.00,,,0.00,Wunderground v.1.15,2013-03-03 16:00:00,
2013-03-03 10:01:00,37.4,24.0,30.00,SW,236,0.0,0.0,58,0.00,,,0.00,Wunderground v.1.15,2013-03-03 16:01:00,
2013-03-03 10:03:00,37.4,24.0,30.00,WSW,237,0.0,0.0,58,0.00,,,0.00,Wunderground v.1.15,2013-03-03 16:03:00,
2013-03-03 10:04:00,37.5,24.5,30.00,SW,236,0.0,0.0,59,0.00,,,0.00,Wunderground v.1.15,2013-03-03 16:04:00,
2013-03-03 10:05:00,37.6,23.7,30.01,WSW,237,0.0,0.0,57,0.00,,,0.00,Wunderground v.1.15,2013-03-03 16:05:00,
2013-03-03 10:07:00,37.6,23.7,30.01,West,264,0.0,2.0,57,0.00,,,0.00,Wunderground v.1.15,2013-03-03 16:07:00,
2013-03-03 10:08:00,37.6,23.7,30.01,West,263,0.0,2.0,57,0.00,,,0.00,Wunderground v.1.15,2013-03-03 16:08:00,
2013-03-03 10:09:00,37.6,23.3,30.00,NNE,12,4.0,4.0,56,0.00,,,0.00,Wunderground v.1.15,2013-03-03 16:09:00,
2013-03-03 10:11:00,37.5,23.6,30.00,NNE,33,0.0,4.0,57,0.00,,,0.00,Wunderground v.1.15,2013-03-03 16:11:00,
2013-03-03 10:12:00,37.5,23.2,30.00,NNE,33,0.0,4.0,56,0.00,,,0.00,Wunderground v.1.15,2013-03-03 16:12:00,
2013-03-03 10:13:00,37.6,23.7,30.00,ENE,67,0.0,0.0,57,0.00,,,0.00,Wunderground v.1.15,2013-03-03 16:13:00,
2013-03-03 10:15:00,37.7,23.8,30.00,NNW,329,0.0,0.0,57,0.00,,,0.00,Wunderground v.1.15,2013-03-03 16:15:00,
2013-03-03 10:16:00,37.8,24.3,30.00,NNW,327,0.0,0.0,58,0.00,,,0.00,Wunderground v.1.15,2013-03-03 16:16:00,
2013-03-03 10:17:00,37.8,23.9,30.00,NW,316,0.0,0.0,57,0.00,,,0.00,Wunderground v.1.15,2013-03-03 16:17:00,
2013-03-03 10:18:00,37.9,24.0,30.00,West,265,0.0,0.0,57,0.00,,,0.00,Wunderground v.1.15,2013-03-03 16:18:00,
2013-03-03 10:20:00,37.8,22.6,30.00,WSW,240,0.0,4.0,54,0.00,,,0.00,Wunderground v.1.15,2013-03-03 16:20:00,
2013-03-03 10:21:00,37.8,23.1,30.00,NW,314,3.0,4.0,55,0.00,,,0.00,Wunderground v.1.15,2013-03-03 16:21:00,
2013-03-03 10:22:00,37.8,23.1,30.00,NNW,327,0.0,0.0,55,0.00,,,0.00,Wunderground v.1.15,2013-03-03 16:22:00,
2013-03-03 10:24:00,37.8,23.5,30.01,NW,322,0.0,3.0,56,0.00,,,0.00,Wunderground v.1.15,2013-03-03 16:24:00,
2013-03-03 10:26:00,37.8,23.9,30.01,NW,309,0.0,3.0,57,0.00,,,0.00,Wunderground v.1.15,2013-03-03 16:26:00,
2013-03-03 10:27:00,37.8,23.1,30.01,NW,309,0.0,3.0,55,0.00,,,0.00,Wunderground v.1.15,2013-03-03 16:27:00,
2013-03-03 10:30:00,38.1,24.2,30.01,NW,306,0.0,3.0,57,0.00,,,0.00,Wunderground v.1.15,2013-03-03 16:30:00,
2013-03-03 10:31:00,38.2,23.9,30.01,North,355,0.0,3.0,56,0.00,,,0.00,Wunderground v.1.15,2013-03-03 16:31:00,
2013-03-03 10:32:00,38.3,23.5,30.00,NE,34,0.0,0.0,55,0.00,,,0.00,Wunderground v.1.15,2013-03-03 16:32:00,
2013-03-03 10:35:00,38.6,23.8,30.00,SW,222,0.0,3.0,55,0.00,,,0.00,Wunderground v.1.15,2013-03-03 16:35:00,
2013-03-03 10:36:00,38.7,24.8,30.00,WNW,291,1.0,3.0,57,0.00,,,0.00,Wunderground v.1.15,2013-03-03 16:36:00,
2013-03-03 10:37:00,38.8,24.0,30.00,NW,307,0.0,3.0,55,0.00,,,0.00,Wunderground v.1.15,2013-03-03 16:37:00,
2013-03-03 10:40:00,38.8,24.0,30.01,NW,309,2.0,4.0,55,0.00,,,0.00,Wunderground v.1.15,2013-03-03 16:40:00,
2013-03-03 10:42:00,38.8,23.6,30.01,NW,321,0.0,4.0,54,0.00,,,0.00,Wunderground v.1.15,2013-03-03 16:42:00,
2013-03-03 10:46:00,38.9,24.5,30.01,WSW,255,0.0,4.0,56,0.00,,,0.00,Wunderground v.1.15,2013-03-03 16:46:00,
2013-03-03 10:47:00,39.1,24.7,30.01,SSW,206,0.0,4.0,56,0.00,,,0.00,Wunderground v.1.15,2013-03-03 16:47:00,
2013-03-03 10:48:00,39.2,25.2,30.01,SSW,206,0.0,4.0,57,0.00,,,0.00,Wunderground v.1.15,2013-03-03 16:48:00,
2013-03-03 10:50:00,39.5,25.1,30.01,NNW,337,4.0,5.0,56,0.00,,,0.00,Wunderground v.1.15,2013-03-03 16:50:00,
2013-03-03 10:52:00,39.6,24.7,30.01,WNW,288,0.0,5.0,55,0.00,,,0.00,Wunderground v.1.15,2013-03-03 16:52:00,
2013-03-03 10:53:00,39.7,24.4,30.01,WNW,287,0.0,1.0,54,0.00,,,0.00,Wunderground v.1.15,2013-03-03 16:53:00,
2013-03-03 10:57:00,39.8,23.6,30.00,West,268,0.0,5.0,52,0.00,,,0.00,Wunderground v.1.15,2013-03-03 16:57:00,
2013-03-03 10:58:00,39.9,24.1,30.01,West,259,0.0,5.0,53,0.00,,,0.00,Wunderground v.1.15,2013-03-03 16:58:00,
2013-03-03 11:02:00,40.2,25.3,30.00,SW,226,0.0,1.0,55,0.00,,,0.00,Wunderground v.1.15,2013-03-03 17:02:00,
2013-03-03 11:03:00,40.3,25.0,30.00,NW,308,5.0,5.0,54,0.00,,,0.00,Wunderground v.1.15,2013-03-03 17:03:00,
2013-03-03 11:07:00,40.1,24.8,30.00,NW,315,0.0,5.0,54,0.00,,,0.00,Wunderground v.1.15,2013-03-03 17:07:00,
2013-03-03 11:08:00,40.1,24.8,30.00,NE,34,0.0,5.0,54,0.00,,,0.00,Wunderground v.1.15,2013-03-03 17:08:00,
2013-03-03 11:09:00,40.1,25.2,30.00,NNE,28,0.0,5.0,55,0.00,,,0.00,Wunderground v.1.15,2013-03-03 17:09:00,
2013-03-03 11:13:00,40.2,24.4,30.00,NNW,328,0.0,1.0,53,0.00,,,0.00,Wunderground v.1.15,2013-03-03 17:13:00,
2013-03-03 11:14:00,40.3,26.3,30.00,NNW,328,0.0,1.0,57,0.00,,,0.00,Wunderground v.1.15,2013-03-03 17:14:00,
2013-03-03 11:18:00,41.3,26.3,29.99,SW,223,0.0,2.0,55,0.00,,,0.00,Wunderground v.1.15,2013-03-03 17:18:00,
2013-03-03 11:19:00,41.3,26.3,29.99,NW,313,2.0,2.0,55,0.00,,,0.00,Wunderground v.1.15,2013-03-03 17:19:00,
2013-03-03 11:20:00,41.6,26.6,30.00,WNW,296,1.0,4.0,55,0.00,,,0.00,Wunderground v.1.15,2013-03-03 17:20:00,
2013-03-03 11:23:00,41.8,25.9,30.00,NW,324,0.0,5.0,53,0.00,,,0.00,Wunderground v.1.15,2013-03-03 17:23:00,
2013-03-03 11:24:00,41.8,25.9,30.00,NW,324,2.0,5.0,53,0.00,,,0.00,Wunderground v.1.15,2013-03-03 17:24:00,
2013-03-03 11:26:00,41.8,25.9,30.00,WNW,290,0.0,5.0,53,0.00,,,0.00,Wunderground v.1.15,2013-03-03 17:26:00,
2013-03-03 11:29:00,41.5,25.2,30.00,WNW,302,0.0,5.0,52,0.00,,,0.00,Wunderground v.1.15,2013-03-03 17:29:00,
2013-03-03 11:30:00,41.3,24.0,30.00,WNW,287,0.0,5.0,50,0.00,,,0.00,Wunderground v.1.15,2013-03-03 17:30:00,
2013-03-03 11:31:00,41.2,23.5,30.00,WNW,288,0.0,5.0,49,0.00,,,0.00,Wunderground v.1.15,2013-03-03 17:31:00,
2013-03-03 11:34:00,40.9,25.1,29.99,WNW,288,0.0,1.0,53,0.00,,,0.00,Wunderground v.1.15,2013-03-03 17:34:00,
2013-03-03 11:36:00,40.9,26.0,29.99,NW,317,2.0,3.0,55,0.00,,,0.00,Wunderground v.1.15,2013-03-03 17:36:00,
2013-03-03 11:39:00,40.9,26.4,29.99,NNW,329,4.0,5.0,56,0.00,,,0.00,Wunderground v.1.15,2013-03-03 17:39:00,
2013-03-03 11:41:00,40.9,24.6,29.99,NNW,329,3.0,6.0,52,0.00,,,0.00,Wunderground v.1.15,2013-03-03 17:41:00,
2013-03-03 11:44:00,41.0,25.6,29.99,NNW,340,7.0,7.0,54,0.00,,,0.00,Wunderground v.1.15,2013-03-03 17:44:00,
2013-03-03 11:46:00,41.1,25.3,29.99,WNW,303,0.0,7.0,53,0.00,,,0.00,Wunderground v.1.15,2013-03-03 17:46:00,
2013-03-03 11:47:00,41.1,25.3,29.99,NW,325,3.0,7.0,53,0.00,,,0.00,Wunderground v.1.15,2013-03-03 17:47:00,
2013-03-03 11:49:00,41.1,24.8,29.99,NW,325,3.0,7.0,52,0.00,,,0.00,Wunderground v.1.15,2013-03-03 17:49:00,
2013-03-03 11:52:00,41.1,25.3,29.99,NW,324,2.0,7.0,53,0.00,,,0.00,Wunderground v.1.15,2013-03-03 17:52:00,
2013-03-03 11:54:00,41.2,24.9,29.99,West,279,3.0,4.0,52,0.00,,,0.00,Wunderground v.1.15,2013-03-03 17:54:00,
2013-03-03 11:57:00,41.2,24.4,29.99,NNW,331,3.0,4.0,51,0.00,,,0.00,Wunderground v.1.15,2013-03-03 17:57:00,
2013-03-03 12:00:00,41.1,24.3,29.99,NW,323,0.0,4.0,51,0.00,,,0.00,Wunderground v.1.15,2013-03-03 18:00:00,
2013-03-03 12:02:00,41.0,25.2,29.99,WNW,298,0.0,2.0,53,0.00,,,0.00,Wunderground v.1.15,2013-03-03 18:02:00,
2013-03-03 12:03:00,41.0,23.8,29.99,North,5,0.0,3.0,50,0.00,,,0.00,Wunderground v.1.15,2013-03-03 18:03:00,
2013-03-03 12:05:00,41.0,24.2,29.98,NE,49,4.0,4.0,51,0.00,,,0.00,Wunderground v.1.15,2013-03-03 18:05:00,
2013-03-03 12:08:00,41.2,24.4,29.98,NW,317,0.0,4.0,51,0.00,,,0.00,Wunderground v.1.15,2013-03-03 18:08:00,
2013-03-03 12:09:00,41.3,23.6,29.98,NW,319,3.0,4.0,49,0.00,,,0.00,Wunderground v.1.15,2013-03-03 18:09:00,
2013-03-03 12:10:00,41.3,23.6,29.98,NW,310,0.0,5.0,49,0.00,,,0.00,Wunderground v.1.15,2013-03-03 18:10:00,
2013-03-03 12:11:00,41.3,23.6,29.98,NW,311,0.0,5.0,49,0.00,,,0.00,Wunderground v.1.15,2013-03-03 18:11:00,
2013-03-03 12:13:00,41.2,23.9,29.98,WNW,292,0.0,1.0,50,0.00,,,0.00,Wunderground v.1.15,2013-03-03 18:13:00,
2013-03-03 12:14:00,41.2,23.5,29.98,East,80,0.0,1.0,49,0.00,,,0.00,Wunderground v.1.15,2013-03-03 18:14:00,
2013-03-03 12:16:00,41.2,24.4,29.97,NNW,337,0.0,1.0,51,0.00,,,0.00,Wunderground v.1.15,2013-03-03 18:16:00,
2013-03-03 12:19:00,41.4,24.6,29.98,SE,139,2.0,4.0,51,0.00,,,0.00,Wunderground v.1.15,2013-03-03 18:19:00,
2013-03-03 12:20:00,41.6,25.3,29.98,SSE,157,0.0,4.0,52,0.00,,,0.00,Wunderground v.1.15,2013-03-03 18:20:00,
2013-03-03 12:21:00,41.7,24.9,29.98,WNW,288,2.0,5.0,51,0.00,,,0.00,Wunderground v.1.15,2013-03-03 18:21:00,
2013-03-03 12:22:00,41.8,25.0,29.98,NW,325,0.0,5.0,51,0.00,,,0.00,Wunderground v.1.15,2013-03-03 18:22:00,
2013-03-03 12:24:00,41.8,24.0,29.97,NW,315,0.0,6.0,49,0.00,,,0.00,Wunderground v.1.15,2013-03-03 18:24:00,
2013-03-03 12:25:00,41.8,24.0,29.97,NNW,348,0.0,6.0,49,0.00,,,0.00,Wunderground v.1.15,2013-03-03 18:25:00,
2013-03-03 12:26:00,41.8,24.5,29.97,NNW,344,0.0,6.0,50,0.00,,,0.00,Wunderground v.1.15,2013-03-03 18:26:00,
2013-03-03 12:27:00,41.9,26.4,29.97,NW,307,0.0,6.0,54,0.00,,,0.00,Wunderground v.1.15,2013-03-03 18:27:00,
2013-03-03 12:29:00,42.0,23.7,29.97,NW,309,3.0,6.0,48,0.00,,,0.00,Wunderground v.1.15,2013-03-03 18:29:00,
2013-03-03 12:31:00,42.0,23.7,29.97,NNE,29,2.0,6.0,48,0.00,,,0.00,Wunderground v.1.15,2013-03-03 18:31:00,
2013-03-03 12:32:00,41.9,23.1,29.97,NNW,329,0.0,1.0,47,0.00,,,0.00,Wunderground v.1.15,2013-03-03 18:32:00,
2013-03-03 12:34:00,41.8,23.5,29.97,NNW,329,0.0,2.0,48,0.00,,,0.00,Wunderground v.1.15,2013-03-03 18:34:00,
2013-03-03 12:36:00,41.7,22.9,29.97,NNW,329,0.0,2.0,47,0.00,,,0.00,Wunderground v.1.15,2013-03-03 18:36:00,
2013-03-03 12:37:00,41.8,24.0,29.96,NNW,331,2.0,3.0,49,0.00,,,0.00,Wunderground v.1.15,2013-03-03 18:37:00,
2013-03-03 12:39:00,41.8,23.5,29.96,NNW,331,0.0,3.0,48,0.00,,,0.00,Wunderground v.1.15,2013-03-03 18:39:00,
2013-03-03 12:41:00,41.9,23.6,29.96,ENE,78,0.0,3.0,48,0.00,,,0.00,Wunderground v.1.15,2013-03-03 18:41:00,
2013-03-03 12:42:00,42.0,23.2,29.96,SW,231,0.0,0.0,47,0.00,,,0.00,Wunderground v.1.15,2013-03-03 18:42:00,
2013-03-03 12:44:00,42.1,23.8,29.96,SW,231,0.0,0.0,48,0.00,,,0.00,Wunderground v.1.15,2013-03-03 18:44:00,
2013-03-03 12:46:00,42.3,23.0,29.96,SW,231,0.0,0.0,46,0.00,,,0.00,Wunderground v.1.15,2013-03-03 18:46:00,
2013-03-03 12:47:00,42.3,23.0,29.95,SW,231,0.0,0.0,46,0.00,,,0.00,Wunderground v.1.15,2013-03-03 18:47:00,
2013-03-03 12:49:00,42.4,23.1,29.95,West,262,4.0,4.0,46,0.00,,,0.00,Wunderground v.1.15,2013-03-03 18:49:00,
2013-03-03 12:52:00,42.5,23.2,29.96,West,262,0.0,4.0,46,0.00,,,0.00,Wunderground v.1.15,2013-03-03 18:52:00,
2013-03-03 12:55:00,42.7,22.3,29.95,West,261,0.0,2.0,44,0.00,,,0.00,Wunderground v.1.15,2013-03-03 18:55:00,
2013-03-03 12:57:00,42.7,21.2,29.95,West,261,0.0,2.0,42,0.00,,,0.00,Wunderground v.1.15,2013-03-03 18:57:00,
2013-03-03 12:58:00,42.8,21.8,29.95,West,261,0.0,2.0,43,0.00,,,0.00,Wunderground v.1.15,2013-03-03 18:58:00,
2013-03-03 13:00:00,43.0,22.5,29.95,SE,130,0.0,3.0,44,0.00,,,0.00,Wunderground v.1.15,2013-03-03 19:00:00,
2013-03-03 13:03:00,43.4,23.4,29.95,SSE,149,0.0,0.0,45,0.00,,,0.00,Wunderground v.1.15,2013-03-03 19:03:00,
2013-03-03 13:05:00,43.7,23.7,29.94,SSE,150,0.0,0.0,45,0.00,,,0.00,Wunderground v.1.15,2013-03-03 19:05:00,
2013-03-03 13:08:00,43.9,23.4,29.94,NNW,345,2.0,3.0,44,0.00,,,0.00,Wunderground v.1.15,2013-03-03 19:08:00,
2013-03-03 13:09:00,43.9,23.9,29.94,North,360,3.0,4.0,45,0.00,,,0.00,Wunderground v.1.15,2013-03-03 19:09:00,
2013-03-03 13:10:00,43.8,23.3,29.94,NNW,345,0.0,4.0,44,0.00,,,0.00,Wunderground v.1.15,2013-03-03 19:10:00,
2013-03-03 13:13:00,43.7,23.7,29.94,NNW,336,0.0,1.0,45,0.00,,,0.00,Wunderground v.1.15,2013-03-03 19:13:00,
2013-03-03 13:14:00,43.5,23.0,29.94,NNW,342,1.0,3.0,44,0.00,,,0.00,Wunderground v.1.15,2013-03-03 19:14:00,
2013-03-03 13:16:00,43.3,22.8,29.94,NW,315,0.0,3.0,44,0.00,,,0.00,Wunderground v.1.15,2013-03-03 19:16:00,
2013-03-03 13:18:00,43.2,23.3,29.94,NW,315,0.0,3.0,45,0.00,,,0.00,Wunderground v.1.15,2013-03-03 19:18:00,
2013-03-03 13:19:00,43.2,23.3,29.94,NW,315,0.0,3.0,45,0.00,,,0.00,Wunderground v.1.15,2013-03-03 19:19:00,
2013-03-03 13:20:00,43.1,23.7,29.94,NW,315,0.0,3.0,46,0.00,,,0.00,Wunderground v.1.15,2013-03-03 19:20:00,
2013-03-03 13:21:00,43.2,24.3,29.94,NW,315,0.0,3.0,47,0.00,,,0.00,Wunderground v.1.15,2013-03-03 19:21:00,
2013-03-03 13:24:00,43.5,25.6,29.93,NW,315,0.0,1.0,49,0.00,,,0.00,Wunderground v.1.15,2013-03-03 19:24:00,
2013-03-03 13:25:00,43.7,25.3,29.93,NW,315,0.0,1.0,48,0.00,,,0.00,Wunderground v.1.15,2013-03-03 19:25:00,
2013-03-03 13:27:00,44.1,25.1,29.93,SW,226,0.0,2.0,47,0.00,,,0.00,Wunderground v.1.15,2013-03-03 19:27:00,
2013-03-03 13:29:00,44.3,23.7,29.93,SSW,211,0.0,5.0,44,0.00,,,0.00,Wunderground v.1.15,2013-03-03 19:29:00,
2013-03-03 13:31:00,44.2,24.2,29.93,SSE,150,6.0,6.0,45,0.00,,,0.00,Wunderground v.1.15,2013-03-03 19:31:00,
2013-03-03 13:32:00,44.1,24.1,29.93,SSE,160,0.0,1.0,45,0.00,,,0.00,Wunderground v.1.15,2013-03-03 19:32:00,
2013-03-03 13:34:00,44.0,25.0,29.93,SSE,158,1.0,2.0,47,0.00,,,0.00,Wunderground v.1.15,2013-03-03 19:34:00,
2013-03-03 13:35:00,44.1,24.6,29.93,SSE,157,0.0,2.0,46,0.00,,,0.00,Wunderground v.1.15,2013-03-03 19:35:00,
2013-03-03 13:36:00,44.1,24.6,29.93,SSE,158,0.0,2.0,46,0.00,,,0.00,Wunderground v.1.15,2013-03-03 19:36:00,
2013-03-03 13:38:00,44.3,25.3,29.93,WNW,297,3.0,3.0,47,0.00,,,0.00,Wunderground v.1.15,2013-03-03 19:38:00,
2013-03-03 13:40:00,44.6,25.6,29.93,NW,325,2.0,4.0,47,0.00,,,0.00,Wunderground v.1.15,2013-03-03 19:40:00,
2013-03-03 13:41:00,44.6,25.6,29.93,NW,325,0.0,4.0,47,0.00,,,0.00,Wunderground v.1.15,2013-03-03 19:41:00,
2013-03-03 13:43:00,44.7,24.6,29.93,NNW,332,3.0,4.0,45,0.00,,,0.00,Wunderground v.1.15,2013-03-03 19:43:00,
2013-03-03 13:46:00,44.7,24.1,29.93,WSW,257,0.0,4.0,44,0.00,,,0.00,Wunderground v.1.15,2013-03-03 19:46:00,
2013-03-03 13:47:00,44.7,24.1,29.93,WSW,257,0.0,4.0,44,0.00,,,0.00,Wunderground v.1.15,2013-03-03 19:47:00,
2013-03-03 13:48:00,44.7,24.1,29.93,WSW,257,0.0,4.0,44,0.00,,,0.00,Wunderground v.1.15,2013-03-03 19:48:00,
2013-03-03 13:51:00,44.9,24.8,29.93,NNW,334,2.0,4.0,45,0.00,,,0.00,Wunderground v.1.15,2013-03-03 19:51:00,
2013-03-03 13:52:00,44.9,24.3,29.93,NNW,336,0.0,1.0,44,0.00,,,0.00,Wunderground v.1.15,2013-03-03 19:52:00,
2013-03-03 13:53:00,44.9,23.7,29.92,NNE,13,0.0,1.0,43,0.00,,,0.00,Wunderground v.1.15,2013-03-03 19:53:00,
2013-03-03 13:56:00,44.7,23.0,29.92,North,5,0.0,1.0,42,0.00,,,0.00,Wunderground v.1.15,2013-03-03 19:56:00,
2013-03-03 13:58:00,44.6,23.5,29.92,NNW,348,0.0,1.0,43,0.00,,,0.00,Wunderground v.1.15,2013-03-03 19:58:00,
2013-03-03 13:59:00,44.6,23.5,29.92,NNW,348,0.0,1.0,43,0.00,,,0.00,Wunderground v.1.15,2013-03-03 19:59:00,
2013-03-03 14:01:00,44.7,23.0,29.92,West,263,0.0,2.0,42,0.00,,,0.00,Wunderground v.1.15,2013-03-03 20:01:00,
2013-03-03 14:04:00,44.8,23.6,29.92,West,264,0.0,4.0,43,0.00,,,0.00,Wunderground v.1.15,2013-03-03 20:04:00,
2013-03-03 14:05:00,44.9,23.7,29.92,NW,308,1.0,4.0,43,0.00,,,0.00,Wunderground v.1.15,2013-03-03 20:05:00,
2013-03-03 14:06:00,45.0,23.3,29.92,NW,319,1.0,4.0,42,0.00,,,0.00,Wunderground v.1.15,2013-03-03 20:06:00,
2013-03-03 14:09:00,45.1,24.5,29.92,NW,310,0.0,4.0,44,0.00,,,0.00,Wunderground v.1.15,2013-03-03 20:09:00,
2013-03-03 14:10:00,45.2,24.0,29.92,NW,313,0.0,4.0,43,0.00,,,0.00,Wunderground v.1.15,2013-03-03 20:10:00,
2013-03-03 14:12:00,45.2,24.0,29.92,NW,323,6.0,6.0,43,0.00,,,0.00,Wunderground v.1.15,2013-03-03 20:12:00,
2013-03-03 14:14:00,45.1,23.3,29.92,North,360,0.0,5.0,42,0.00,,,0.00,Wunderground v.1.15,2013-03-03 20:14:00,
2013-03-03 14:15:00,45.1,22.8,29.91,North,360,0.0,5.0,41,0.00,,,0.00,Wunderground v.1.15,2013-03-03 20:15:00,
2013-03-03 14:17:00,45.1,23.3,29.91,SE,136,0.0,5.0,42,0.00,,,0.00,Wunderground v.1.15,2013-03-03 20:17:00,
2013-03-03 14:20:00,45.0,23.8,29.91,South,175,0.0,5.0,43,0.00,,,0.00,Wunderground v.1.15,2013-03-03 20:20:00,
2013-03-03 14:21:00,45.0,23.8,29.91,SE,130,3.0,5.0,43,0.00,,,0.00,Wunderground v.1.15,2013-03-03 20:21:00,
2013-03-03 14:22:00,45.0,23.3,29.91,ESE,103,2.0,2.0,42,0.00,,,0.00,Wunderground v.1.15,2013-03-03 20:22:00,
2013-03-03 14:25:00,45.0,24.4,29.91,South,181,0.0,3.0,44,0.00,,,0.00,Wunderground v.1.15,2013-03-03 20:25:00,
2013-03-03 14:26:00,45.1,23.9,29.91,South,180,0.0,3.0,43,0.00,,,0.00,Wunderground v.1.15,2013-03-03 20:26:00,
2013-03-03 14:27:00,45.1,23.3,29.91,NW,313,2.0,3.0,42,0.00,,,0.00,Wunderground v.1.15,2013-03-03 20:27:00,
2013-03-03 14:31:00,45.1,23.3,29.90,NW,313,0.0,3.0,42,0.00,,,0.00,Wunderground v.1.15,2013-03-03 20:31:00,
2013-03-03 14:32:00,45.1,23.3,29.90,NW,313,0.0,0.0,42,0.00,,,0.00,Wunderground v.1.15,2013-03-03 20:32:00,
2013-03-03 14:33:00,45.1,23.3,29.90,South,172,0.0,0.0,42,0.00,,,0.00,Wunderground v.1.15,2013-03-03 20:33:00,
2013-03-03 14:36:00,45.2,23.4,29.90,WSW,248,0.0,4.0,42,0.00,,,0.00,Wunderground v.1.15,2013-03-03 20:36:00,
2013-03-03 14:38:00,45.2,24.0,29.90,South,183,0.0,4.0,43,0.00,,,0.00,Wunderground v.1.15,2013-03-03 20:38:00,
2013-03-03 14:41:00,45.4,23.6,29.90,South,175,0.0,4.0,42,0.00,,,0.00,Wunderground v.1.15,2013-03-03 20:41:00,
2013-03-03 14:43:00,45.4,23.6,29.90,South,175,0.0,0.0,42,0.00,,,0.00,Wunderground v.1.15,2013-03-03 20:43:00,
2013-03-03 14:46:00,45.6,23.8,29.90,WSW,237,0.0,3.0,42,0.00,,,0.00,Wunderground v.1.15,2013-03-03 20:46:00,
2013-03-03 14:47:00,45.6,23.8,29.90,WSW,237,0.0,3.0,42,0.00,,,0.00,Wunderground v.1.15,2013-03-03 20:47:00,
2013-03-03 14:48:00,45.7,25.0,29.89,SW,235,0.0,3.0,44,0.00,,,0.00,Wunderground v.1.15,2013-03-03 20:48:00,
2013-03-03 14:51:00,46.0,24.7,29.89,South,169,0.0,3.0,43,0.00,,,0.00,Wunderground v.1.15,2013-03-03 20:51:00,
2013-03-03 14:52:00,46.0,24.7,29.89,South,188,1.0,3.0,43,0.00,,,0.00,Wunderground v.1.15,2013-03-03 20:52:00,
2013-03-03 14:53:00,46.1,24.3,29.89,SW,233,0.0,4.0,42,0.00,,,0.00,Wunderground v.1.15,2013-03-03 20:53:00,
2013-03-03 14:57:00,46.2,24.3,29.89,South,180,0.0,4.0,42,0.00,,,0.00,Wunderground v.1.15,2013-03-03 20:57:00,
2013-03-03 14:58:00,46.3,23.3,29.89,South,180,0.0,4.0,40,0.00,,,0.00,Wunderground v.1.15,2013-03-03 20:58:00,
2013-03-03 15:02:00,46.3,23.9,29.89,ESE,111,0.0,4.0,41,0.00,,,0.00,Wunderground v.1.15,2013-03-03 21:02:00,
2013-03-03 15:03:00,46.3,23.9,29.89,ESE,111,0.0,0.0,41,0.00,,,0.00,Wunderground v.1.15,2013-03-03 21:03:00,
2013-03-03 15:04:00,46.3,23.9,29.89,ESE,111,0.0,0.0,41,0.00,,,0.00,Wunderground v.1.15,2013-03-03 21:04:00,
2013-03-03 15:07:00,46.4,23.9,29.89,ESE,111,0.0,0.0,41,0.00,,,0.00,Wunderground v.1.15,2013-03-03 21:07:00,
2013-03-03 15:08:00,46.4,23.4,29.89,NNE,12,0.0,0.0,40,0.00,,,0.00,Wunderground v.1.15,2013-03-03 21:08:00,
2013-03-03 15:09:00,46.4,23.4,29.89,North,11,0.0,2.0,40,0.00,,,0.00,Wunderground v.1.15,2013-03-03 21:09:00,
2013-03-03 15:12:00,46.5,24.0,29.89,North,11,0.0,0.0,41,0.00,,,0.00,Wunderground v.1.15,2013-03-03 21:12:00,
2013-03-03 15:13:00,46.6,24.1,29.89,NNW,329,1.0,3.0,41,0.00,,,0.00,Wunderground v.1.15,2013-03-03 21:13:00,
2013-03-03 15:14:00,46.6,24.1,29.89,NNW,329,0.0,3.0,41,0.00,,,0.00,Wunderground v.1.15,2013-03-03 21:14:00,
2013-03-03 15:17:00,46.6,22.9,29.89,NW,310,1.0,3.0,39,0.00,,,0.00,Wunderground v.1.15,2013-03-03 21:17:00,
2013-03-03 15:19:00,46.7,24.2,29.89,WNW,295,0.0,3.0,41,0.00,,,0.00,Wunderground v.1.15,2013-03-03 21:19:00,
2013-03-03 15:22:00,46.8,24.9,29.89,South,191,0.0,0.0,42,0.00,,,0.00,Wunderground v.1.15,2013-03-03 21:22:00,
2013-03-03 15:24:00,46.8,24.3,29.89,South,191,0.0,0.0,41,0.00,,,0.00,Wunderground v.1.15,2013-03-03 21:24:00,
2013-03-03 15:27:00,46.7,24.8,29.89,South,188,3.0,5.0,42,0.00,,,0.00,Wunderground v.1.15,2013-03-03 21:27:00,
2013-03-03 15:29:00,46.5,24.6,29.88,South,171,0.0,5.0,42,0.00,,,0.00,Wunderground v.1.15,2013-03-03 21:29:00,
2013-03-03 15:30:00,46.5,24.6,29.88,ESE,109,4.0,5.0,42,0.00,,,0.00,Wunderground v.1.15,2013-03-03 21:30:00,
2013-03-03 15:32:00,46.5,25.2,29.88,South,171,1.0,3.0,43,0.00,,,0.00,Wunderground v.1.15,2013-03-03 21:32:00,
2013-03-03 15:34:00,46.4,25.1,29.88,South,171,2.0,3.0,43,0.00,,,0.00,Wunderground v.1.15,2013-03-03 21:34:00,
2013-03-03 15:35:00,46.4,25.1,29.88,South,190,2.0,3.0,43,0.00,,,0.00,Wunderground v.1.15,2013-03-03 21:35:00,
2013-03-03 15:38:00,46.6,25.8,29.88,SSE,163,0.0,3.0,44,0.00,,,0.00,Wunderground v.1.15,2013-03-03 21:38:00,
2013-03-03 15:39:00,46.7,25.9,29.88,SSE,165,0.0,3.0,44,0.00,,,0.00,Wunderground v.1.15,2013-03-03 21:39:00,
2013-03-03 15:40:00,46.7,25.9,29.88,SSE,165,0.0,3.0,44,0.00,,,0.00,Wunderground v.1.15,2013-03-03 21:40:00,
2013-03-03 15:43:00,47.0,24.5,29.88,SSE,165,0.0,0.0,41,0.00,,,0.00,Wunderground v.1.15,2013-03-03 21:43:00,
2013-03-03 15:44:00,47.0,25.1,29.88,South,169,0.0,0.0,42,0.00,,,0.00,Wunderground v.1.15,2013-03-03 21:44:00,
2013-03-03 15:45:00,47.0,25.1,29.88,South,169,0.0,0.0,42,0.00,,,0.00,Wunderground v.1.15,2013-03-03 21:45:00,
2013-03-03 15:46:00,47.0,24.5,29.88,SSE,167,0.0,0.0,41,0.00,,,0.00,Wunderground v.1.15,2013-03-03 21:46:00,
2013-03-03 15:48:00,47.0,25.1,29.88,SSE,168,0.0,0.0,42,0.00,,,0.00,Wunderground v.1.15,2013-03-03 21:48:00,
2013-03-03 15:49:00,47.0,24.5,29.88,South,169,0.0,0.0,41,0.00,,,0.00,Wunderground v.1.15,2013-03-03 21:49:00,
2013-03-03 15:50:00,47.0,25.1,29.88,South,169,0.0,0.0,42,0.00,,,0.00,Wunderground v.1.15,2013-03-03 21:50:00,
2013-03-03 15:51:00,47.0,24.5,29.88,South,169,0.0,0.0,41,0.00,,,0.00,Wunderground v.1.15,2013-03-03 21:51:00,
2013-03-03 15:54:00,47.0,24.5,29.88,SSE,168,0.0,0.0,41,0.00,,,0.00,Wunderground v.1.15,2013-03-03 21:54:00,
2013-03-03 15:55:00,47.0,23.9,29.88,SE,142,2.0,4.0,40,0.00,,,0.00,Wunderground v.1.15,2013-03-03 21:55:00,
2013-03-03 15:56:00,47.0,23.9,29.88,SSE,147,0.0,4.0,40,0.00,,,0.00,Wunderground v.1.15,2013-03-03 21:56:00,
2013-03-03 15:59:00,46.9,24.4,29.88,SSE,147,0.0,4.0,41,0.00,,,0.00,Wunderground v.1.15,2013-03-03 21:59:00,
2013-03-03 16:00:00,46.9,24.4,29.88,SE,146,0.0,4.0,41,0.00,,,0.00,Wunderground v.1.15,2013-03-03 22:00:00,
2013-03-03 16:02:00,46.9,25.0,29.87,SSE,161,4.0,6.0,42,0.00,,,0.00,Wunderground v.1.15,2013-03-03 22:02:00,
2013-03-03 16:04:00,46.5,24.6,29.88,South,179,1.0,4.0,42,0.00,,,0.00,Wunderground v.1.15,2013-03-03 22:04:00,
2013-03-03 16:05:00,46.5,24.0,29.88,South,180,0.0,4.0,41,0.00,,,0.00,Wunderground v.1.15,2013-03-03 22:05:00,
2013-03-03 16:07:00,46.3,24.4,29.87,SSE,155,0.0,4.0,42,0.00,,,0.00,Wunderground v.1.15,2013-03-03 22:07:00,
2013-03-03 16:09:00,46.3,23.9,29.87,South,190,3.0,4.0,41,0.00,,,0.00,Wunderground v.1.15,2013-03-03 22:09:00,
2013-03-03 16:10:00,46.3,24.4,29.87,South,183,0.0,4.0,42,0.00,,,0.00,Wunderground v.1.15,2013-03-03 22:10:00,
2013-03-03 16:13:00,46.3,25.0,29.87,South,182,4.0,8.0,43,0.00,,,0.00,Wunderground v.1.15,2013-03-03 22:13:00,
2013-03-03 16:15:00,46.3,24.4,29.87,South,173,5.0,8.0,42,0.00,,,0.00,Wunderground v.1.15,2013-03-03 22:15:00,
2013-03-03 16:16:00,46.3,25.0,29.87,South,169,4.0,8.0,43,0.00,,,0.00,Wunderground v.1.15,2013-03-03 22:16:00,
2013-03-03 16:18:00,46.2,24.3,29.87,South,178,0.0,8.0,42,0.00,,,0.00,Wunderground v.1.15,2013-03-03 22:18:00,
2013-03-03 16:20:00,46.2,24.9,29.87,SE,136,5.0,8.0,43,0.00,,,0.00,Wunderground v.1.15,2013-03-03 22:20:00,
2013-03-03 16:21:00,46.2,24.3,29.87,SSE,153,1.0,8.0,42,0.00,,,0.00,Wunderground v.1.15,2013-03-03 22:21:00,
2013-03-03 16:22:00,46.2,24.3,29.87,South,174,0.0,2.0,42,0.00,,,0.00,Wunderground v.1.15,2013-03-03 22:22:00,
2013-03-03 16:24:00,46.1,24.3,29.87,South,173,0.0,2.0,42,0.00,,,0.00,Wunderground v.1.15,2013-03-03 22:24:00,
2013-03-03 16:25:00,46.2,24.9,29.87,South,174,0.0,2.0,43,0.00,,,0.00,Wunderground v.1.15,2013-03-03 22:25:00,
2013-03-03 16:26:00,46.2,24.9,29.87,South,174,0.0,2.0,43,0.00,,,0.00,Wunderground v.1.15,2013-03-03 22:26:00,
2013-03-03 16:28:00,46.2,24.9,29.87,South,173,0.0,2.0,43,0.00,,,0.00,Wunderground v.1.15,2013-03-03 22:28:00,
2013-03-03 16:29:00,46.2,24.9,29.87,South,174,0.0,2.0,43,0.00,,,0.00,Wunderground v.1.15,2013-03-03 22:29:00,
2013-03-03 16:30:00,46.3,25.0,29.86,South,174,0.0,2.0,43,0.00,,,0.00,Wunderground v.1.15,2013-03-03 22:30:00,
2013-03-03 16:31:00,46.3,25.0,29.86,South,174,0.0,2.0,43,0.00,,,0.00,Wunderground v.1.15,2013-03-03 22:31:00,
2013-03-03 16:33:00,46.4,25.6,29.86,South,174,0.0,0.0,44,0.00,,,0.00,Wunderground v.1.15,2013-03-03 22:33:00,
2013-03-03 16:34:00,46.4,25.1,29.86,South,174,0.0,0.0,43,0.00,,,0.00,Wunderground v.1.15,2013-03-03 22:34:00,
2013-03-03 16:36:00,46.5,24.6,29.86,South,173,0.0,0.0,42,0.00,,,0.00,Wunderground v.1.15,2013-03-03 22:36:00,
2013-03-03 16:39:00,46.6,24.7,29.86,SW,227,0.0,2.0,42,0.00,,,0.00,Wunderground v.1.15,2013-03-03 22:39:00,
2013-03-03 16:40:00,46.6,24.7,29.86,SW,227,0.0,2.0,42,0.00,,,0.00,Wunderground v.1.15,2013-03-03 22:40:00,
2013-03-03 16:41:00,46.6,24.1,29.86,SW,227,0.0,2.0,41,0.00,,,0.00,Wunderground v.1.15,2013-03-03 22:41:00,
2013-03-03 16:44:00,46.6,24.1,29.86,SW,227,0.0,0.0,41,0.00,,,0.00,Wunderground v.1.15,2013-03-03 22:44:00,
2013-03-03 16:45:00,46.5,24.6,29.86,SW,227,0.0,0.0,42,0.00,,,0.00,Wunderground v.1.15,2013-03-03 22:45:00,
2013-03-03 16:46:00,46.5,24.0,29.86,SW,226,0.0,0.0,41,0.00,,,0.00,Wunderground v.1.15,2013-03-03 22:46:00,
2013-03-03 16:50:00,46.4,23.9,29.86,South,173,1.0,3.0,41,0.00,,,0.00,Wunderground v.1.15,2013-03-03 22:50:00,
2013-03-03 16:51:00,46.3,24.4,29.86,South,172,0.0,3.0,42,0.00,,,0.00,Wunderground v.1.15,2013-03-03 22:51:00,
2013-03-03 16:52:00,46.3,24.4,29.86,South,172,0.0,0.0,42,0.00,,,0.00,Wunderground v.1.15,2013-03-03 22:52:00,
2013-03-03 16:55:00,46.2,24.3,29.86,South,169,2.0,2.0,42,0.00,,,0.00,Wunderground v.1.15,2013-03-03 22:55:00,
2013-03-03 16:56:00,46.1,24.3,29.86,South,171,0.0,3.0,42,0.00,,,0.00,Wunderground v.1.15,2013-03-03 22:56:00,
2013-03-03 16:57:00,46.1,23.7,29.86,South,171,0.0,3.0,41,0.00,,,0.00,Wunderground v.1.15,2013-03-03 22:57:00,
2013-03-03 17:00:00,46.0,24.2,29.86,South,171,0.0,3.0,42,0.00,,,0.00,Wunderground v.1.15,2013-03-03 23:00:00,
2013-03-03 17:01:00,46.0,24.2,29.86,South,171,0.0,3.0,42,0.00,,,0.00,Wunderground v.1.15,2013-03-03 23:01:00,
2013-03-03 17:02:00,46.0,24.2,29.86,South,171,0.0,3.0,42,0.00,,,0.00,Wunderground v.1.15,2013-03-03 23:02:00,
2013-03-03 17:05:00,45.9,24.1,29.86,South,170,0.0,2.0,42,0.00,,,0.00,Wunderground v.1.15,2013-03-03 23:05:00,
2013-03-03 17:06:00,45.9,24.1,29.86,South,170,0.0,2.0,42,0.00,,,0.00,Wunderground v.1.15,2013-03-03 23:06:00,
2013-03-03 17:07:00,45.9,24.6,29.87,South,169,0.0,2.0,43,0.00,,,0.00,Wunderground v.1.15,2013-03-03 23:07:00,
2013-03-03 17:11:00,45.9,25.7,29.87,South,169,0.0,2.0,45,0.00,,,0.00,Wunderground v.1.15,2013-03-03 23:11:00,
2013-03-03 17:12:00,45.9,25.7,29.87,South,170,0.0,0.0,45,0.00,,,0.00,Wunderground v.1.15,2013-03-03 23:12:00,
2013-03-03 17:13:00,45.9,24.6,29.87,South,169,0.0,0.0,43,0.00,,,0.00,Wunderground v.1.15,2013-03-03 23:13:00,
2013-03-03 17:16:00,45.8,24.5,29.87,South,169,0.0,1.0,43,0.00,,,0.00,Wunderground v.1.15,2013-03-03 23:16:00,
2013-03-03 17:17:00,45.8,24.5,29.87,South,169,0.0,1.0,43,0.00,,,0.00,Wunderground v.1.15,2013-03-03 23:17:00,
2013-03-03 17:18:00,45.8,24.0,29.87,South,170,0.0,1.0,42,0.00,,,0.00,Wunderground v.1.15,2013-03-03 23:18:00,
2013-03-03 17:21:00,45.8,24.5,29.87,South,169,0.0,1.0,43,0.00,,,0.00,Wunderground v.1.15,2013-03-03 23:21:00,
2013-03-03 17:22:00,45.8,25.1,29.87,South,170,0.0,0.0,44,0.00,,,0.00,Wunderground v.1.15,2013-03-03 23:22:00,
2013-03-03 17:23:00,45.8,25.1,29.87,South,170,0.0,0.0,44,0.00,,,0.00,Wunderground v.1.15,2013-03-03 23:23:00,
2013-03-03 17:26:00,45.7,23.9,29.87,South,170,2.0,2.0,42,0.00,,,0.00,Wunderground v.1.15,2013-03-03 23:26:00,
2013-03-03 17:28:00,45.8,24.0,29.87,South,170,0.0,2.0,42,0.00,,,0.00,Wunderground v.1.15,2013-03-03 23:28:00,
2013-03-03 17:31:00,45.8,24.0,29.87,South,170,2.0,2.0,42,0.00,,,0.00,Wunderground v.1.15,2013-03-03 23:31:00,
2013-03-03 17:33:00,45.8,24.0,29.87,South,170,0.0,2.0,42,0.00,,,0.00,Wunderground v.1.15,2013-03-03 23:33:00,
2013-03-03 17:34:00,45.7,23.9,29.87,South,170,0.0,2.0,42,0.00,,,0.00,Wunderground v.1.15,2013-03-03 23:34:00,
2013-03-03 17:37:00,45.8,24.0,29.86,South,170,0.0,2.0,42,0.00,,,0.00,Wunderground v.1.15,2013-03-03 23:37:00,
2013-03-03 17:38:00,45.7,24.5,29.86,South,170,0.0,2.0,43,0.00,,,0.00,Wunderground v.1.15,2013-03-03 23:38:00,
2013-03-03 17:39:00,45.7,24.5,29.86,South,170,0.0,2.0,43,0.00,,,0.00,Wunderground v.1.15,2013-03-03 23:39:00,
2013-03-03 17:42:00,45.7,24.5,29.86,South,170,0.0,2.0,43,0.00,,,0.00,Wunderground v.1.15,2013-03-03 23:42:00,
2013-03-03 17:44:00,45.7,24.5,29.85,South,169,0.0,2.0,43,0.00,,,0.00,Wunderground v.1.15,2013-03-03 23:44:00,
2013-03-03 17:49:00,45.6,23.8,29.86,South,169,0.0,2.0,42,0.00,,,0.00,Wunderground v.1.15,2013-03-03 23:49:00,
2013-03-03 17:50:00,45.6,24.4,29.86,South,170,0.0,2.0,43,0.00,,,0.00,Wunderground v.1.15,2013-03-03 23:50:00,
2013-03-03 17:54:00,45.6,24.9,29.85,South,170,0.0,0.0,44,0.00,,,0.00,Wunderground v.1.15,2013-03-03 23:54:00,
2013-03-03 17:55:00,45.6,25.5,29.85,South,170,0.0,0.0,45,0.00,,,0.00,Wunderground v.1.15,2013-03-03 23:55:00,
2013-03-03 18:00:00,45.4,25.3,29.86,South,170,0.0,0.0,45,0.00,,,0.00,Wunderground v.1.15,2013-03-04 00:00:00,
2013-03-03 18:01:00,45.4,24.7,29.86,South,169,0.0,0.0,44,0.00,,,0.00,Wunderground v.1.15,2013-03-04 00:01:00,
2013-03-03 18:05:00,45.2,25.1,29.86,South,170,0.0,0.0,45,0.00,,,0.00,Wunderground v.1.15,2013-03-04 00:05:00,
2013-03-03 18:06:00,45.2,25.6,29.86,South,169,0.0,0.0,46,0.00,,,0.00,Wunderground v.1.15,2013-03-04 00:06:00,
2013-03-03 18:10:00,45.0,26.5,29.85,South,170,0.0,0.0,48,0.00,,,0.00,Wunderground v.1.15,2013-03-04 00:10:00,
2013-03-03 18:11:00,45.0,26.0,29.85,South,170,0.0,0.0,47,0.00,,,0.00,Wunderground v.1.15,2013-03-04 00:11:00,
2013-03-03 18:15:00,44.7,27.7,29.86,South,170,0.0,0.0,51,0.00,,,0.00,Wunderground v.1.15,2013-03-04 00:15:00,
2013-03-03 18:16:00,44.6,27.6,29.86,South,170,0.0,0.0,51,0.00,,,0.00,Wunderground v.1.15,2013-03-04 00:16:00,
2013-03-03 18:21:00,44.0,27.0,29.86,South,170,0.0,0.0,51,0.00,,,0.00,Wunderground v.1.15,2013-03-04 00:21:00,
2013-03-03 18:26:00,43.3,27.8,29.86,South,170,0.0,0.0,54,0.00,,,0.00,Wunderground v.1.15,2013-03-04 00:26:00,
2013-03-03 18:28:00,43.0,27.5,29.86,South,170,0.0,0.0,54,0.00,,,0.00,Wunderground v.1.15,2013-03-04 00:28:00,
2013-03-03 18:31:00,42.4,28.7,29.86,South,169,0.0,0.0,58,0.00,,,0.00,Wunderground v.1.15,2013-03-04 00:31:00,
2013-03-03 18:32:00,42.3,28.6,29.86,South,170,0.0,0.0,58,0.00,,,0.00,Wunderground v.1.15,2013-03-04 00:32:00,
2013-03-03 18:33:00,42.1,28.4,29.86,South,170,0.0,0.0,58,0.00,,,0.00,Wunderground v.1.15,2013-03-04 00:33:00,
2013-03-03 18:36:00,41.6,27.1,29.87,South,170,0.0,0.0,56,0.00,,,0.00,Wunderground v.1.15,2013-03-04 00:36:00,
2013-03-03 18:37:00,41.5,27.0,29.86,South,169,0.0,0.0,56,0.00,,,0.00,Wunderground v.1.15,2013-03-04 00:37:00,
2013-03-03 18:38:00,41.4,26.9,29.87,South,169,0.0,0.0,56,0.00,,,0.00,Wunderground v.1.15,2013-03-04 00:38:00,
2013-03-03 18:42:00,41.1,27.0,29.87,South,170,0.0,0.0,57,0.00,,,0.00,Wunderground v.1.15,2013-03-04 00:42:00,
2013-03-03 18:43:00,41.0,26.9,29.86,South,170,0.0,0.0,57,0.00,,,0.00,Wunderground v.1.15,2013-03-04 00:43:00,
2013-03-03 18:47:00,40.7,26.6,29.86,South,170,0.0,0.0,57,0.00,,,0.00,Wunderground v.1.15,2013-03-04 00:47:00,
2013-03-03 18:48:00,40.6,26.5,29.86,South,169,0.0,0.0,57,0.00,,,0.00,Wunderground v.1.15,2013-03-04 00:48:00,
2013-03-03 18:52:00,40.3,27.5,29.86,South,170,0.0,0.0,60,0.00,,,0.00,Wunderground v.1.15,2013-03-04 00:52:00,
2013-03-03 18:53:00,40.2,27.4,29.86,South,170,0.0,0.0,60,0.00,,,0.00,Wunderground v.1.15,2013-03-04 00:53:00,
2013-03-03 18:58:00,39.6,28.0,29.86,South,170,0.0,0.0,63,0.00,,,0.00,Wunderground v.1.15,2013-03-04 00:58:00,
2013-03-03 18:59:00,39.5,27.9,29.86,South,169,0.0,0.0,63,0.00,,,0.00,Wunderground v.1.15,2013-03-04 00:59:00,
2013-03-03 19:04:00,39.0,27.5,29.86,South,169,0.0,0.0,63,0.00,,,0.00,Wunderground v.1.15,2013-03-04 01:04:00,
2013-03-03 19:09:00,38.6,27.1,29.86,South,170,0.0,0.0,63,0.00,,,0.00,Wunderground v.1.15,2013-03-04 01:09:00,
2013-03-03 19:14:00,38.4,27.3,29.86,South,170,0.0,0.0,64,0.00,,,0.00,Wunderground v.1.15,2013-03-04 01:14:00,
2013-03-03 19:19:00,38.2,27.1,29.86,South,170,0.0,0.0,64,0.00,,,0.00,Wunderground v.1.15,2013-03-04 01:19:00,
2013-03-03 19:20:00,38.2,27.1,29.86,South,170,0.0,0.0,64,0.00,,,0.00,Wunderground v.1.15,2013-03-04 01:20:00,
2013-03-03 19:24:00,38.0,27.3,29.86,South,170,0.0,0.0,65,0.00,,,0.00,Wunderground v.1.15,2013-03-04 01:24:00,
2013-03-03 19:25:00,38.0,27.3,29.86,South,169,0.0,0.0,65,0.00,,,0.00,Wunderground v.1.15,2013-03-04 01:25:00,
2013-03-03 19:29:00,37.9,27.5,29.86,South,169,0.0,0.0,66,0.00,,,0.00,Wunderground v.1.15,2013-03-04 01:29:00,
2013-03-03 19:30:00,37.9,27.5,29.86,South,169,0.0,0.0,66,0.00,,,0.00,Wunderground v.1.15,2013-03-04 01:30:00,
2013-03-03 19:31:00,37.9,27.5,29.86,South,169,0.0,0.0,66,0.00,,,0.00,Wunderground v.1.15,2013-03-04 01:31:00,
2013-03-03 19:35:00,37.8,27.8,29.85,South,170,0.0,0.0,67,0.00,,,0.00,Wunderground v.1.15,2013-03-04 01:35:00,
2013-03-03 19:36:00,37.8,28.2,29.85,South,169,0.0,0.0,68,0.00,,,0.00,Wunderground v.1.15,2013-03-04 01:36:00,
2013-03-03 19:41:00,37.7,28.1,29.86,South,169,0.0,0.0,68,0.00,,,0.00,Wunderground v.1.15,2013-03-04 01:41:00,
2013-03-03 19:42:00,37.7,28.1,29.86,South,170,0.0,0.0,68,0.00,,,0.00,Wunderground v.1.15,2013-03-04 01:42:00,
2013-03-03 19:46:00,37.5,27.9,29.86,South,170,0.0,0.0,68,0.00,,,0.00,Wunderground v.1.15,2013-03-04 01:46:00,
2013-03-03 19:47:00,37.5,27.9,29.86,South,170,0.0,0.0,68,0.00,,,0.00,Wunderground v.1.15,2013-03-04 01:47:00,
2013-03-03 19:51:00,37.2,28.0,29.86,South,169,0.0,0.0,69,0.00,,,0.00,Wunderground v.1.15,2013-03-04 01:51:00,
2013-03-03 19:52:00,37.1,27.9,29.86,South,170,0.0,0.0,69,0.00,,,0.00,Wunderground v.1.15,2013-03-04 01:52:00,
2013-03-03 19:53:00,37.1,27.9,29.87,South,169,0.0,0.0,69,0.00,,,0.00,Wunderground v.1.15,2013-03-04 01:53:00,
2013-03-03 19:57:00,36.9,28.0,29.87,South,169,0.0,0.0,70,0.00,,,0.00,Wunderground v.1.15,2013-03-04 01:57:00,
2013-03-03 19:58:00,36.9,28.4,29.87,South,170,0.0,0.0,71,0.00,,,0.00,Wunderground v.1.15,2013-03-04 01:58:00,
2013-03-03 19:59:00,36.8,28.3,29.87,South,170,0.0,0.0,71,0.00,,,0.00,Wunderground v.1.15,2013-03-04 01:59:00,
2013-03-03 20:02:00,36.7,28.2,29.87,South,170,0.0,0.0,71,0.00,,,0.00,Wunderground v.1.15,2013-03-04 02:02:00,
2013-03-03 20:03:00,36.6,28.1,29.87,South,170,0.0,0.0,71,0.00,,,0.00,Wunderground v.1.15,2013-03-04 02:03:00,
2013-03-03 20:04:00,36.6,28.4,29.87,South,170,0.0,0.0,72,0.00,,,0.00,Wunderground v.1.15,2013-03-04 02:04:00,
2013-03-03 20:07:00,36.5,28.3,29.87,South,170,0.0,0.0,72,0.00,,,0.00,Wunderground v.1.15,2013-03-04 02:07:00,
2013-03-03 20:08:00,36.5,29.7,29.87,South,170,0.0,0.0,76,0.00,,,0.00,Wunderground v.1.15,2013-03-04 02:08:00,
2013-03-03 20:09:00,36.5,28.3,29.87,South,169,0.0,0.0,72,0.00,,,0.00,Wunderground v.1.15,2013-03-04 02:09:00,
2013-03-03 20:10:00,36.5,28.3,29.87,South,170,0.0,0.0,72,0.00,,,0.00,Wunderground v.1.15,2013-03-04 02:10:00,
2013-03-03 20:12:00,36.4,27.9,29.87,South,170,0.0,0.0,71,0.00,,,0.00,Wunderground v.1.15,2013-03-04 02:12:00,
2013-03-03 20:13:00,36.4,28.2,29.87,South,170,0.0,0.0,72,0.00,,,0.00,Wunderground v.1.15,2013-03-04 02:13:00,
2013-03-03 20:14:00,36.4,28.2,29.87,South,169,0.0,0.0,72,0.00,,,0.00,Wunderground v.1.15,2013-03-04 02:14:00,
2013-03-03 20:15:00,36.4,28.2,29.87,South,169,0.0,0.0,72,0.00,,,0.00,Wunderground v.1.15,2013-03-04 02:15:00,
2013-03-03 20:18:00,36.3,28.1,29.87,South,170,0.0,0.0,72,0.00,,,0.00,Wunderground v.1.15,2013-03-04 02:18:00,
2013-03-03 20:20:00,36.3,28.1,29.87,South,169,0.0,0.0,72,0.00,,,0.00,Wunderground v.1.15,2013-03-04 02:20:00,
2013-03-03 20:21:00,36.2,28.0,29.87,South,169,0.0,0.0,72,0.00,,,0.00,Wunderground v.1.15,2013-03-04 02:21:00,
2013-03-03 20:23:00,36.2,28.0,29.87,South,170,0.0,0.0,72,0.00,,,0.00,Wunderground v.1.15,2013-03-04 02:23:00,
2013-03-03 20:25:00,36.1,27.9,29.87,South,170,0.0,0.0,72,0.00,,,0.00,Wunderground v.1.15,2013-03-04 02:25:00,
2013-03-03 20:26:00,36.1,27.9,29.87,South,169,0.0,0.0,72,0.00,,,0.00,Wunderground v.1.15,2013-03-04 02:26:00,
2013-03-03 20:28:00,36.0,27.5,29.87,South,170,0.0,0.0,71,0.00,,,0.00,Wunderground v.1.15,2013-03-04 02:28:00,
2013-03-03 20:29:00,36.0,27.5,29.87,South,170,0.0,0.0,71,0.00,,,0.00,Wunderground v.1.15,2013-03-04 02:29:00,
2013-03-03 20:30:00,36.0,27.8,29.87,South,170,0.0,0.0,72,0.00,,,0.00,Wunderground v.1.15,2013-03-04 02:30:00,
2013-03-03 20:31:00,36.0,27.8,29.87,South,169,0.0,0.0,72,0.00,,,0.00,Wunderground v.1.15,2013-03-04 02:31:00,
2013-03-03 20:34:00,35.9,27.7,29.87,South,170,0.0,0.0,72,0.00,,,0.00,Wunderground v.1.15,2013-03-04 02:34:00,
2013-03-03 20:36:00,35.8,27.7,29.87,South,170,0.0,0.0,72,0.00,,,0.00,Wunderground v.1.15,2013-03-04 02:36:00,
2013-03-03 20:39:00,35.7,27.9,29.87,South,170,0.0,0.0,73,0.00,,,0.00,Wunderground v.1.15,2013-03-04 02:39:00,
2013-03-03 20:41:00,35.6,27.8,29.87,South,170,0.0,0.0,73,0.00,,,0.00,Wunderground v.1.15,2013-03-04 02:41:00,
2013-03-03 20:44:00,35.5,27.7,29.86,South,170,0.0,0.0,73,0.00,,,0.00,Wunderground v.1.15,2013-03-04 02:44:00,
2013-03-03 20:46:00,35.4,27.6,29.86,South,170,0.0,0.0,73,0.00,,,0.00,Wunderground v.1.15,2013-03-04 02:46:00,
2013-03-03 20:49:00,35.3,27.5,29.87,South,170,0.0,0.0,73,0.00,,,0.00,Wunderground v.1.15,2013-03-04 02:49:00,
2013-03-03 20:51:00,35.2,27.7,29.86,South,169,0.0,0.0,74,0.00,,,0.00,Wunderground v.1.15,2013-03-04 02:51:00,
2013-03-03 20:52:00,35.2,27.7,29.86,South,170,0.0,0.0,74,0.00,,,0.00,Wunderground v.1.15,2013-03-04 02:52:00,
2013-03-03 20:54:00,35.1,27.6,29.87,South,170,0.0,0.0,74,0.00,,,0.00,Wunderground v.1.15,2013-03-04 02:54:00,
2013-03-03 20:55:00,35.1,27.6,29.87,South,169,0.0,0.0,74,0.00,,,0.00,Wunderground v.1.15,2013-03-04 02:55:00,
2013-03-03 20:57:00,35.0,27.9,29.87,South,170,0.0,0.0,75,0.00,,,0.00,Wunderground v.1.15,2013-03-04 02:57:00,
2013-03-03 20:58:00,35.0,27.9,29.87,South,169,0.0,0.0,75,0.00,,,0.00,Wunderground v.1.15,2013-03-04 02:58:00,
2013-03-03 20:59:00,34.9,27.8,29.87,South,170,0.0,0.0,75,0.00,,,0.00,Wunderground v.1.15,2013-03-04 02:59:00,
2013-03-03 21:00:00,34.9,27.5,29.87,South,170,0.0,0.0,74,0.00,,,0.00,Wunderground v.1.15,2013-03-04 03:00:00,
2013-03-03 21:02:00,34.8,27.4,29.87,South,169,0.0,0.0,74,0.00,,,0.00,Wunderground v.1.15,2013-03-04 03:02:00,
2013-03-03 21:03:00,34.8,27.4,29.87,South,169,0.0,0.0,74,0.00,,,0.00,Wunderground v.1.15,2013-03-04 03:03:00,
2013-03-03 21:05:00,34.7,27.3,29.86,South,169,0.0,0.0,74,0.00,,,0.00,Wunderground v.1.15,2013-03-04 03:05:00,
2013-03-03 21:08:00,34.6,27.5,29.86,South,170,0.0,0.0,75,0.00,,,0.00,Wunderground v.1.15,2013-03-04 03:08:00,
2013-03-03 21:11:00,34.5,27.4,29.86,South,170,0.0,0.0,75,0.00,,,0.00,Wunderground v.1.15,2013-03-04 03:11:00,
2013-03-03 21:13:00,34.4,27.6,29.86,South,169,0.0,0.0,76,0.00,,,0.00,Wunderground v.1.15,2013-03-04 03:13:00,
2013-03-03 21:14:00,34.4,27.6,29.86,South,169,0.0,0.0,76,0.00,,,0.00,Wunderground v.1.15,2013-03-04 03:14:00,
2013-03-03 21:16:00,34.4,27.9,29.86,South,170,0.0,0.0,77,0.00,,,0.00,Wunderground v.1.15,2013-03-04 03:16:00,
2013-03-03 21:19:00,34.4,27.6,29.86,South,170,0.0,0.0,76,0.00,,,0.00,Wunderground v.1.15,2013-03-04 03:19:00,
2013-03-03 21:20:00,34.4,27.9,29.86,South,169,0.0,0.0,77,0.00,,,0.00,Wunderground v.1.15,2013-03-04 03:20:00,
2013-03-03 21:21:00,34.4,27.9,29.86,South,170,0.0,0.0,77,0.00,,,0.00,Wunderground v.1.15,2013-03-04 03:21:00,
2013-03-03 21:22:00,34.4,27.9,29.86,South,170,0.0,0.0,77,0.00,,,0.00,Wunderground v.1.15,2013-03-04 03:22:00,
2013-03-03 21:24:00,34.4,28.2,29.86,South,170,0.0,0.0,78,0.00,,,0.00,Wunderground v.1.15,2013-03-04 03:24:00,
2013-03-03 21:25:00,34.4,28.2,29.86,South,170,0.0,0.0,78,0.00,,,0.00,Wunderground v.1.15,2013-03-04 03:25:00,
2013-03-03 21:26:00,34.4,28.2,29.86,South,169,0.0,0.0,78,0.00,,,0.00,Wunderground v.1.15,2013-03-04 03:26:00,
2013-03-03 21:27:00,34.4,28.2,29.86,South,170,0.0,0.0,78,0.00,,,0.00,Wunderground v.1.15,2013-03-04 03:27:00,
2013-03-03 21:29:00,34.4,28.2,29.86,South,169,0.0,0.0,78,0.00,,,0.00,Wunderground v.1.15,2013-03-04 03:29:00,
2013-03-03 21:32:00,34.4,28.2,29.86,South,170,0.0,0.0,78,0.00,,,0.00,Wunderground v.1.15,2013-03-04 03:32:00,
2013-03-03 21:33:00,34.4,28.2,29.86,South,170,0.0,0.0,78,0.00,,,0.00,Wunderground v.1.15,2013-03-04 03:33:00,
2013-03-03 21:34:00,34.4,28.2,29.86,South,170,0.0,0.0,78,0.00,,,0.00,Wunderground v.1.15,2013-03-04 03:34:00,
2013-03-03 21:37:00,34.4,28.2,29.86,South,170,0.0,0.0,78,0.00,,,0.00,Wunderground v.1.15,2013-03-04 03:37:00,
2013-03-03 21:38:00,34.4,28.2,29.86,South,170,0.0,0.0,78,0.00,,,0.00,Wunderground v.1.15,2013-03-04 03:38:00,
2013-03-03 21:39:00,34.4,28.6,29.86,South,169,0.0,0.0,79,0.00,,,0.00,Wunderground v.1.15,2013-03-04 03:39:00,
2013-03-03 21:42:00,34.4,28.6,29.86,South,170,0.0,0.0,79,0.00,,,0.00,Wunderground v.1.15,2013-03-04 03:42:00,
2013-03-03 21:43:00,34.4,28.6,29.86,South,170,0.0,0.0,79,0.00,,,0.00,Wunderground v.1.15,2013-03-04 03:43:00,
2013-03-03 21:44:00,34.4,28.6,29.86,South,170,0.0,0.0,79,0.00,,,0.00,Wunderground v.1.15,2013-03-04 03:44:00,
2013-03-03 21:45:00,34.4,28.6,29.86,South,170,0.0,0.0,79,0.00,,,0.00,Wunderground v.1.15,2013-03-04 03:45:00,
2013-03-03 21:47:00,34.4,28.6,29.86,South,170,0.0,0.0,79,0.00,,,0.00,Wunderground v.1.15,2013-03-04 03:47:00,
2013-03-03 21:48:00,34.4,28.6,29.86,South,170,0.0,0.0,79,0.00,,,0.00,Wunderground v.1.15,2013-03-04 03:48:00,
2013-03-03 21:49:00,34.4,28.6,29.86,South,169,0.0,0.0,79,0.00,,,0.00,Wunderground v.1.15,2013-03-04 03:49:00,
2013-03-03 21:50:00,34.4,28.6,29.86,South,170,0.0,0.0,79,0.00,,,0.00,Wunderground v.1.15,2013-03-04 03:50:00,
2013-03-03 21:52:00,34.4,28.9,29.86,South,169,0.0,0.0,80,0.00,,,0.00,Wunderground v.1.15,2013-03-04 03:52:00,
2013-03-03 21:53:00,34.4,28.9,29.86,South,169,0.0,0.0,80,0.00,,,0.00,Wunderground v.1.15,2013-03-04 03:53:00,
2013-03-03 21:54:00,34.4,28.9,29.86,South,170,0.0,0.0,80,0.00,,,0.00,Wunderground v.1.15,2013-03-04 03:54:00,
2013-03-03 21:55:00,34.4,28.9,29.86,South,170,0.0,0.0,80,0.00,,,0.00,Wunderground v.1.15,2013-03-04 03:55:00,
2013-03-03 21:58:00,34.4,28.9,29.86,South,170,0.0,0.0,80,0.00,,,0.00,Wunderground v.1.15,2013-03-04 03:58:00,
2013-03-03 21:59:00,34.4,28.6,29.86,South,169,0.0,0.0,79,0.00,,,0.00,Wunderground v.1.15,2013-03-04 03:59:00,
2013-03-03 22:01:00,34.4,28.6,29.86,South,170,0.0,0.0,79,0.00,,,0.00,Wunderground v.1.15,2013-03-04 04:01:00,
2013-03-03 22:03:00,34.4,28.9,29.86,South,170,0.0,0.0,80,0.00,,,0.00,Wunderground v.1.15,2013-03-04 04:03:00,
2013-03-03 22:05:00,34.5,29.0,29.86,South,170,0.0,0.0,80,0.00,,,0.00,Wunderground v.1.15,2013-03-04 04:05:00,
2013-03-03 22:06:00,34.5,29.0,29.86,South,169,0.0,0.0,80,0.00,,,0.00,Wunderground v.1.15,2013-03-04 04:06:00,
2013-03-03 22:08:00,34.7,29.5,29.86,South,170,0.0,0.0,81,0.00,,,0.00,Wunderground v.1.15,2013-03-04 04:08:00,
2013-03-03 22:10:00,34.7,29.5,29.86,South,170,0.0,0.0,81,0.00,,,0.00,Wunderground v.1.15,2013-03-04 04:10:00,
2013-03-03 22:11:00,34.8,29.6,29.86,South,169,0.0,0.0,81,0.00,,,0.00,Wunderground v.1.15,2013-03-04 04:11:00,
2013-03-03 22:13:00,34.8,29.6,29.85,South,169,0.0,0.0,81,0.00,,,0.00,Wunderground v.1.15,2013-03-04 04:13:00,
2013-03-03 22:15:00,34.9,29.7,29.85,South,170,0.0,0.0,81,0.00,,,0.00,Wunderground v.1.15,2013-03-04 04:15:00,
2013-03-03 22:16:00,35.0,29.5,29.86,South,170,0.0,0.0,80,0.00,,,0.00,Wunderground v.1.15,2013-03-04 04:16:00,
2013-03-03 22:18:00,35.0,29.5,29.85,South,169,0.0,0.0,80,0.00,,,0.00,Wunderground v.1.15,2013-03-04 04:18:00,
2013-03-03 22:19:00,35.0,29.5,29.85,South,170,0.0,0.0,80,0.00,,,0.00,Wunderground v.1.15,2013-03-04 04:19:00,
2013-03-03 22:20:00,35.1,29.6,29.85,South,170,0.0,0.0,80,0.00,,,0.00,Wunderground v.1.15,2013-03-04 04:20:00,
2013-03-03 22:22:00,35.1,29.6,29.85,South,170,0.0,0.0,80,0.00,,,0.00,Wunderground v.1.15,2013-03-04 04:22:00,
2013-03-03 22:23:00,35.2,29.6,29.85,South,169,0.0,0.0,80,0.00,,,0.00,Wunderground v.1.15,2013-03-04 04:23:00,
2013-03-03 22:24:00,35.2,29.6,29.85,South,169,0.0,0.0,80,0.00,,,0.00,Wunderground v.1.15,2013-03-04 04:24:00,
2013-03-03 22:25:00,35.3,29.4,29.85,South,169,0.0,0.0,79,0.00,,,0.00,Wunderground v.1.15,2013-03-04 04:25:00,
2013-03-03 22:28:00,35.5,29.3,29.85,South,170,0.0,0.0,78,0.00,,,0.00,Wunderground v.1.15,2013-03-04 04:28:00,
2013-03-03 22:29:00,35.6,29.1,29.85,South,169,0.0,0.0,77,0.00,,,0.00,Wunderground v.1.15,2013-03-04 04:29:00,
2013-03-03 22:31:00,35.7,28.9,29.85,South,169,0.0,0.0,76,0.00,,,0.00,Wunderground v.1.15,2013-03-04 04:31:00,
2013-03-03 22:33:00,36.0,28.8,29.85,South,169,0.0,0.0,75,0.00,,,0.00,Wunderground v.1.15,2013-03-04 04:33:00,
2013-03-03 22:34:00,36.0,28.5,29.85,South,169,0.0,0.0,74,0.00,,,0.00,Wunderground v.1.15,2013-03-04 04:34:00,
2013-03-03 22:36:00,36.2,28.7,29.85,South,170,0.0,0.0,74,0.00,,,0.00,Wunderground v.1.15,2013-03-04 04:36:00,
2013-03-03 22:38:00,36.3,28.8,29.85,South,169,0.0,0.0,74,0.00,,,0.00,Wunderground v.1.15,2013-03-04 04:38:00,
2013-03-03 22:39:00,36.4,28.9,29.85,South,170,0.0,0.0,74,0.00,,,0.00,Wunderground v.1.15,2013-03-04 04:39:00,
2013-03-03 22:41:00,36.4,28.9,29.85,South,170,0.0,0.0,74,0.00,,,0.00,Wunderground v.1.15,2013-03-04 04:41:00,
2013-03-03 22:43:00,36.5,29.0,29.85,South,170,0.0,0.0,74,0.00,,,0.00,Wunderground v.1.15,2013-03-04 04:43:00,
2013-03-03 22:44:00,36.5,29.0,29.85,South,170,0.0,0.0,74,0.00,,,0.00,Wunderground v.1.15,2013-03-04 04:44:00,
2013-03-03 22:45:00,36.5,29.0,29.85,South,170,0.0,0.0,74,0.00,,,0.00,Wunderground v.1.15,2013-03-04 04:45:00,
2013-03-03 22:46:00,36.6,29.1,29.85,South,170,0.0,0.0,74,0.00,,,0.00,Wunderground v.1.15,2013-03-04 04:46:00,
2013-03-03 22:48:00,36.6,29.1,29.85,South,170,0.0,0.0,74,0.00,,,0.00,Wunderground v.1.15,2013-03-04 04:48:00,
2013-03-03 22:49:00,36.7,28.9,29.85,South,170,0.0,0.0,73,0.00,,,0.00,Wunderground v.1.15,2013-03-04 04:49:00,
2013-03-03 22:50:00,36.7,28.9,29.85,South,170,0.0,0.0,73,0.00,,,0.00,Wunderground v.1.15,2013-03-04 04:50:00,
2013-03-03 22:51:00,36.8,28.6,29.85,South,169,0.0,0.0,72,0.00,,,0.00,Wunderground v.1.15,2013-03-04 04:51:00,
2013-03-03 22:53:00,36.9,28.7,29.84,South,170,0.0,0.0,72,0.00,,,0.00,Wunderground v.1.15,2013-03-04 04:53:00,
2013-03-03 22:55:00,37.0,28.8,29.84,South,170,0.0,0.0,72,0.00,,,0.00,Wunderground v.1.15,2013-03-04 04:55:00,
2013-03-03 22:57:00,37.1,28.9,29.84,South,170,0.0,0.0,72,0.00,,,0.00,Wunderground v.1.15,2013-03-04 04:57:00,
2013-03-03 22:59:00,37.2,29.0,29.84,South,169,0.0,0.0,72,0.00,,,0.00,Wunderground v.1.15,2013-03-04 04:59:00,
2013-03-03 23:00:00,37.3,28.8,29.85,South,170,0.0,0.0,71,0.00,,,0.00,Wunderground v.1.15,2013-03-04 05:00:00,
2013-03-03 23:01:00,37.3,28.8,29.85,South,170,0.0,0.0,71,0.00,,,0.00,Wunderground v.1.15,2013-03-04 05:01:00,
2013-03-03 23:05:00,37.3,29.1,29.85,South,170,0.0,0.0,72,0.00,,,0.00,Wunderground v.1.15,2013-03-04 05:05:00,
2013-03-03 23:07:00,37.2,28.7,29.85,South,170,0.0,0.0,71,0.00,,,0.00,Wunderground v.1.15,2013-03-04 05:07:00,
2013-03-03 23:10:00,36.9,29.1,29.85,South,169,0.0,0.0,73,0.00,,,0.00,Wunderground v.1.15,2013-03-04 05:10:00,
2013-03-03 23:11:00,36.9,29.1,29.85,South,170,0.0,0.0,73,0.00,,,0.00,Wunderground v.1.15,2013-03-04 05:11:00,
2013-03-03 23:12:00,36.8,29.0,29.85,South,170,0.0,0.0,73,0.00,,,0.00,Wunderground v.1.15,2013-03-04 05:12:00,
2013-03-03 23:15:00,36.5,28.7,29.85,South,170,0.0,0.0,73,0.00,,,0.00,Wunderground v.1.15,2013-03-04 05:15:00,
2013-03-03 23:16:00,36.5,28.7,29.85,South,170,0.0,0.0,73,0.00,,,0.00,Wunderground v.1.15,2013-03-04 05:16:00,
2013-03-03 23:17:00,36.4,28.6,29.85,South,170,0.0,0.0,73,0.00,,,0.00,Wunderground v.1.15,2013-03-04 05:17:00,
2013-03-03 23:20:00,36.2,28.4,29.85,South,170,0.0,0.0,73,0.00,,,0.00,Wunderground v.1.15,2013-03-04 05:20:00,
2013-03-03 23:21:00,36.1,28.6,29.84,South,170,0.0,0.0,74,0.00,,,0.00,Wunderground v.1.15,2013-03-04 05:21:00,
2013-03-03 23:22:00,36.0,28.5,29.84,South,169,0.0,0.0,74,0.00,,,0.00,Wunderground v.1.15,2013-03-04 05:22:00,
2013-03-03 23:26:00,35.8,28.6,29.85,South,170,0.0,0.0,75,0.00,,,0.00,Wunderground v.1.15,2013-03-04 05:26:00,
2013-03-03 23:27:00,35.7,28.6,29.84,South,170,0.0,0.0,75,0.00,,,0.00,Wunderground v.1.15,2013-03-04 05:27:00,
2013-03-03 23:28:00,35.7,28.6,29.84,South,170,0.0,0.0,75,0.00,,,0.00,Wunderground v.1.15,2013-03-04 05:28:00,
2013-03-03 23:31:00,35.5,28.4,29.84,South,170,0.0,0.0,75,0.00,,,0.00,Wunderground v.1.15,2013-03-04 05:31:00,
2013-03-03 23:32:00,35.5,28.4,29.84,South,170,0.0,0.0,75,0.00,,,0.00,Wunderground v.1.15,2013-03-04 05:32:00,
2013-03-03 23:34:00,35.4,28.6,29.84,South,169,0.0,0.0,76,0.00,,,0.00,Wunderground v.1.15,2013-03-04 05:34:00,
2013-03-03 23:36:00,35.3,28.8,29.84,South,169,0.0,0.0,77,0.00,,,0.00,Wunderground v.1.15,2013-03-04 05:36:00,
2013-03-03 23:37:00,35.3,28.8,29.84,South,169,0.0,0.0,77,0.00,,,0.00,Wunderground v.1.15,2013-03-04 05:37:00,
2013-03-03 23:38:00,35.3,28.8,29.84,South,169,0.0,0.0,77,0.00,,,0.00,Wunderground v.1.15,2013-03-04 05:38:00,
2013-03-03 23:39:00,35.3,28.8,29.84,South,170,0.0,0.0,77,0.00,,,0.00,Wunderground v.1.15,2013-03-04 05:39:00,
2013-03-03 23:41:00,35.5,28.7,29.84,South,170,0.0,0.0,76,0.00,,,0.00,Wunderground v.1.15,2013-03-04 05:41:00,
2013-03-03 23:42:00,35.6,28.5,29.84,South,169,0.0,0.0,75,0.00,,,0.00,Wunderground v.1.15,2013-03-04 05:42:00,
2013-03-03 23:43:00,35.6,28.5,29.84,South,170,0.0,0.0,75,0.00,,,0.00,Wunderground v.1.15,2013-03-04 05:43:00,
2013-03-03 23:44:00,35.8,28.6,29.84,South,169,0.0,0.0,75,0.00,,,0.00,Wunderground v.1.15,2013-03-04 05:44:00,
2013-03-03 23:47:00,36.1,28.6,29.84,South,170,0.0,0.0,74,0.00,,,0.00,Wunderground v.1.15,2013-03-04 05:47:00,
2013-03-03 23:48:00,36.1,28.6,29.84,South,170,0.0,0.0,74,0.00,,,0.00,Wunderground v.1.15,2013-03-04 05:48:00,
2013-03-03 23:49:00,36.2,28.7,29.84,South,169,0.0,0.0,74,0.00,,,0.00,Wunderground v.1.15,2013-03-04 05:49:00,
2013-03-03 23:52:00,36.3,28.8,29.85,South,170,0.0,0.0,74,0.00,,,0.00,Wunderground v.1.15,2013-03-04 05:52:00,
2013-03-03 23:53:00,36.3,28.8,29.85,South,170,0.0,0.0,74,0.00,,,0.00,Wunderground v.1.15,2013-03-04 05:53:00,
2013-03-03 23:54:00,36.3,28.8,29.85,South,169,0.0,0.0,74,0.00,,,0.00,Wunderground v.1.15,2013-03-04 05:54:00,
2013-03-03 23:57:00,36.4,28.6,29.85,South,170,0.0,0.0,73,0.00,,,0.00,Wunderground v.1.15,2013-03-04 05:57:00,
2013-03-03 23:58:00,36.4,28.9,29.85,South,170,0.0,0.0,74,0.00,,,0.00,Wunderground v.1.15,2013-03-04 05:58:00,